DLH715 EDDF-VHHH

Flight info

Callsign DLH715
Flight time 10h 32m
Altitude 33000
Route SULUS4D SULUS Z650 VEMUT DCT MAREG DCT ALAMU DCT BUDOP DCT IRLOX DCT OPT DCT LUGEB DCT UDROS UM859 BIMVO/N0485F350 UM859 KARDE UN644 ROLIN N644 TETRO DCT BARAD M747 SULEL N449 DUKAN B449 RANAH L750 DUDEG/N0502F370 L750 MERUN G452 LKN A201 LSO/N0491F390 A599 LINSO/K0906S1190 A599 POU R473 SIERA
Aircraft A35K/H-SDE2E3GHIJ3J4J5LM1ORWXY/LB1D1

Departure

Time 2026-04-07 07:01
Airport Frankfurt Main Airport (EDDF)

Arrival

Time 2026-04-07 17:33
Airport Hong Kong International Airport (VHHH)
Time Latitude Longitude Altitude Speed Heading
2026-04-07 05:30 50.04726 8.56275 362 ft 0 kts 340°
2026-04-07 06:31 50.04722 8.56277 368 ft 3 kts 340°
2026-04-07 06:32 50.04696 8.56292 362 ft 4 kts 340°
2026-04-07 06:32 50.04671 8.56306 362 ft 3 kts 340°
2026-04-07 06:32 50.04648 8.56315 365 ft 4 kts 12°
2026-04-07 06:32 50.04630 8.56295 366 ft 4 kts 71°
2026-04-07 06:33 50.04623 8.56255 362 ft 3 kts 72°
2026-04-07 06:33 50.04622 8.56248 362 ft 0 kts 70°
2026-04-07 06:38 50.04623 8.56254 362 ft 1 kts 70°
2026-04-07 06:39 50.04631 8.56286 367 ft 5 kts 70°
2026-04-07 06:39 50.04647 8.56352 370 ft 8 kts 70°
2026-04-07 06:39 50.04667 8.56444 366 ft 9 kts 78°
2026-04-07 06:39 50.04640 8.56501 368 ft 5 kts 181°
2026-04-07 06:40 50.04601 8.56476 370 ft 8 kts 202°
2026-04-07 06:40 50.04547 8.56431 370 ft 9 kts 218°
2026-04-07 06:40 50.04500 8.56349 370 ft 11 kts 232°
2026-04-07 06:40 50.04474 8.56237 368 ft 12 kts 254°
2026-04-07 06:41 50.04450 8.56108 368 ft 13 kts 251°
2026-04-07 06:41 50.04417 8.55972 363 ft 14 kts 245°
2026-04-07 06:41 50.04337 8.55938 365 ft 14 kts 163°
2026-04-07 06:41 50.04243 8.55937 367 ft 14 kts 224°
2026-04-07 06:42 50.04201 8.55788 365 ft 16 kts 248°
2026-04-07 06:42 50.04159 8.55619 366 ft 18 kts 250°
2026-04-07 06:42 50.04116 8.55434 366 ft 19 kts 250°
2026-04-07 06:42 50.04071 8.55246 368 ft 18 kts 250°
2026-04-07 06:43 50.04026 8.55054 363 ft 19 kts 250°
2026-04-07 06:43 50.03978 8.54851 366 ft 21 kts 250°
2026-04-07 06:43 50.03924 8.54627 360 ft 23 kts 250°
2026-04-07 06:43 50.03865 8.54386 362 ft 25 kts 242°
2026-04-07 06:44 50.03782 8.54150 360 ft 25 kts 250°
2026-04-07 06:44 50.03718 8.53892 349 ft 26 kts 249°
2026-04-07 06:44 50.03653 8.53625 358 ft 26 kts 249°
2026-04-07 06:44 50.03586 8.53353 353 ft 27 kts 249°
2026-04-07 06:45 50.03543 8.53188 358 ft 13 kts 238°
2026-04-07 06:45 50.03468 8.53101 354 ft 15 kts 212°
2026-04-07 06:45 50.03413 8.52959 349 ft 16 kts 252°
2026-04-07 06:45 50.03351 8.52817 337 ft 16 kts 195°
2026-04-07 06:46 50.03313 8.52913 336 ft 13 kts 63°
2026-04-07 06:46 50.03352 8.53037 353 ft 13 kts 68°
2026-04-07 06:46 50.03383 8.53170 353 ft 13 kts 72°
2026-04-07 06:46 50.03372 8.53303 354 ft 13 kts 120°
2026-04-07 06:47 50.03341 8.53371 354 ft 0 kts 126°
2026-04-07 06:58 50.03341 8.53372 343 ft 1 kts 126°
2026-04-07 06:58 50.03333 8.53388 359 ft 3 kts 126°
2026-04-07 06:59 50.03308 8.53440 356 ft 8 kts 126°
2026-04-07 06:59 50.03284 8.53511 351 ft 7 kts 99°
2026-04-07 06:59 50.03296 8.53589 353 ft 8 kts 71°
2026-04-07 06:59 50.03297 8.53598 344 ft 0 kts 71°
2026-04-07 07:00 50.03299 8.53608 354 ft 5 kts 71°
2026-04-07 07:00 50.03354 8.53852 356 ft 50 kts 70°
2026-04-07 07:00 50.03547 8.54643 360 ft 104 kts 69°
2026-04-07 07:00 50.03856 8.55938 363 ft 150 kts 69°
2026-04-07 07:01 50.04254 8.57607 632 ft 167 kts 68°
2026-04-07 07:01 50.04674 8.59262 1201 ft 165 kts 67°
2026-04-07 07:01 50.05112 8.60927 1753 ft 169 kts 68°
2026-04-07 07:01 50.05535 8.62661 2106 ft 181 kts 71°
2026-04-07 07:02 50.05794 8.63957 2326 ft 189 kts 75°
2026-04-07 07:02 50.06300 8.66678 2824 ft 206 kts 73°
2026-04-07 07:02 50.06762 8.68852 3221 ft 216 kts 70°
2026-04-07 07:02 50.07100 8.70357 3589 ft 219 kts 72°
2026-04-07 07:03 50.07322 8.72723 4079 ft 229 kts 91°
2026-04-07 07:03 50.07041 8.75254 4324 ft 248 kts 103°
2026-04-07 07:03 50.06591 8.77941 4718 ft 261 kts 102°
2026-04-07 07:03 50.06187 8.80742 5221 ft 270 kts 100°
2026-04-07 07:04 50.05832 8.83652 5752 ft 277 kts 98°
2026-04-07 07:04 50.05682 8.86643 6451 ft 275 kts 88°
2026-04-07 07:04 50.05786 8.89619 7076 ft 279 kts 85°
2026-04-07 07:04 50.05889 8.92702 7599 ft 284 kts 86°
2026-04-07 07:05 50.05953 8.95786 8214 ft 286 kts 86°
2026-04-07 07:05 50.06006 8.98847 8797 ft 289 kts 86°
2026-04-07 07:05 50.06057 9.01986 9385 ft 292 kts 86°
2026-04-07 07:05 50.06109 9.05165 9980 ft 295 kts 86°
2026-04-07 07:06 50.06160 9.08380 10510 ft 300 kts 86°
2026-04-07 07:06 50.06214 9.11701 10791 ft 314 kts 86°
2026-04-07 07:06 50.06269 9.15174 11056 ft 328 kts 86°
2026-04-07 07:06 50.06323 9.18804 11334 ft 342 kts 86°
2026-04-07 07:07 50.06379 9.22565 11606 ft 354 kts 86°
2026-04-07 07:07 50.06433 9.26462 11874 ft 366 kts 86°
2026-04-07 07:07 50.06486 9.30488 12135 ft 378 kts 86°
2026-04-07 07:07 50.06540 9.34643 12372 ft 389 kts 86°
2026-04-07 07:08 50.06593 9.38898 12633 ft 398 kts 86°
2026-04-07 07:08 50.06644 9.43224 13046 ft 402 kts 86°
2026-04-07 07:08 50.06696 9.47596 13491 ft 405 kts 86°
2026-04-07 07:08 50.06747 9.52001 13937 ft 408 kts 86°
2026-04-07 07:09 50.06796 9.56435 14376 ft 411 kts 86°
2026-04-07 07:09 50.06844 9.60882 14785 ft 414 kts 86°
2026-04-07 07:09 50.06890 9.65387 15192 ft 417 kts 86°
2026-04-07 07:09 50.06933 9.69910 15559 ft 420 kts 86°
2026-04-07 07:10 50.06982 9.74476 15974 ft 422 kts 86°
2026-04-07 07:10 50.07025 9.79055 16301 ft 425 kts 86°
2026-04-07 07:10 50.07065 9.83665 16697 ft 427 kts 86°
2026-04-07 07:10 50.07102 9.88304 17114 ft 429 kts 86°
2026-04-07 07:11 50.07139 9.92960 17538 ft 432 kts 86°
2026-04-07 07:11 50.07174 9.97645 17933 ft 434 kts 86°
2026-04-07 07:11 50.07208 10.02362 18339 ft 437 kts 86°
2026-04-07 07:11 50.07240 10.07108 18719 ft 439 kts 86°
2026-04-07 07:12 50.07271 10.11876 19069 ft 442 kts 86°
2026-04-07 07:12 50.07299 10.16605 19406 ft 444 kts 86°
2026-04-07 07:12 50.07326 10.21428 19760 ft 446 kts 86°
2026-04-07 07:12 50.07352 10.26265 20127 ft 448 kts 86°
2026-04-07 07:13 50.07381 10.31128 20486 ft 450 kts 86°
2026-04-07 07:13 50.07405 10.36007 20851 ft 452 kts 86°
2026-04-07 07:13 50.07427 10.40912 21224 ft 454 kts 86°
2026-04-07 07:13 50.07449 10.45847 21592 ft 457 kts 86°
2026-04-07 07:14 50.07483 10.55784 22349 ft 461 kts 87°
2026-04-07 07:14 50.07498 10.60795 22706 ft 464 kts 87°
2026-04-07 07:14 50.07510 10.65830 23072 ft 466 kts 87°
2026-04-07 07:15 50.07420 10.70885 23443 ft 471 kts 92°
2026-04-07 07:15 50.06870 10.75872 23794 ft 476 kts 102°
2026-04-07 07:15 50.05976 10.80853 24124 ft 479 kts 105°
2026-04-07 07:15 50.04959 10.85800 24431 ft 482 kts 106°
2026-04-07 07:16 50.03883 10.90745 24743 ft 484 kts 107°
2026-04-07 07:16 50.02786 10.95710 25061 ft 486 kts 107°
2026-04-07 07:16 50.01692 11.00686 25369 ft 488 kts 107°
2026-04-07 07:16 50.00602 11.05690 25677 ft 490 kts 107°
2026-04-07 07:17 49.99512 11.10740 25996 ft 493 kts 106°
2026-04-07 07:17 49.98426 11.15795 26314 ft 495 kts 106°
2026-04-07 07:17 49.97339 11.20868 26629 ft 497 kts 106°
2026-04-07 07:17 49.96243 11.25977 26948 ft 499 kts 106°
2026-04-07 07:18 49.95152 11.31104 27248 ft 501 kts 106°
2026-04-07 07:18 49.94062 11.36247 27569 ft 503 kts 106°
2026-04-07 07:18 49.92966 11.41424 27863 ft 505 kts 106°
2026-04-07 07:18 49.91917 11.46619 28166 ft 507 kts 104°
2026-04-07 07:19 49.90935 11.51945 28445 ft 508 kts 103°
2026-04-07 07:19 49.90008 11.57166 28716 ft 510 kts 103°
2026-04-07 07:19 49.89067 11.62488 28989 ft 512 kts 103°
2026-04-07 07:19 49.88244 11.67858 29268 ft 511 kts 97°
2026-04-07 07:20 49.87683 11.73283 29649 ft 509 kts 96°
2026-04-07 07:20 49.87172 11.78710 30037 ft 508 kts 95°
2026-04-07 07:20 49.86686 11.84141 30397 ft 507 kts 95°
2026-04-07 07:20 49.86211 11.89547 30723 ft 507 kts 95°
2026-04-07 07:21 49.85737 11.94958 31004 ft 506 kts 95°
2026-04-07 07:21 49.85259 12.00367 31293 ft 506 kts 95°
2026-04-07 07:21 49.84782 12.05758 31592 ft 505 kts 95°
2026-04-07 07:21 49.84298 12.11145 31874 ft 505 kts 95°
2026-04-07 07:22 49.83808 12.16536 32143 ft 504 kts 95°
2026-04-07 07:22 49.83316 12.21916 32410 ft 504 kts 95°
2026-04-07 07:22 49.82821 12.27295 32673 ft 504 kts 95°
2026-04-07 07:22 49.82330 12.32660 32964 ft 503 kts 95°
2026-04-07 07:23 49.81835 12.38021 33173 ft 504 kts 94°
2026-04-07 07:23 49.81214 12.43376 33316 ft 509 kts 101°
2026-04-07 07:23 49.78630 12.53708 33324 ft 518 kts 113°
2026-04-07 07:24 49.75382 12.63676 33322 ft 519 kts 115°
2026-04-07 07:24 49.72039 12.73573 33338 ft 519 kts 115°
2026-04-07 07:25 49.68711 12.83459 33319 ft 518 kts 114°
2026-04-07 07:25 49.65398 12.93345 33320 ft 518 kts 114°
2026-04-07 07:26 49.62090 13.03206 33319 ft 518 kts 115°
2026-04-07 07:26 49.58772 13.13057 33344 ft 518 kts 115°
2026-04-07 07:27 49.55443 13.22898 33495 ft 518 kts 115°
2026-04-07 07:27 49.53777 13.27810 33733 ft 518 kts 115°
2026-04-07 07:27 49.52108 13.32717 33934 ft 517 kts 115°
2026-04-07 07:28 49.50437 13.37621 34148 ft 517 kts 115°
2026-04-07 07:28 49.48772 13.42501 34355 ft 517 kts 115°
2026-04-07 07:28 49.47094 13.47406 34552 ft 516 kts 115°
2026-04-07 07:28 49.45425 13.52280 34750 ft 516 kts 115°
2026-04-07 07:29 49.43752 13.57153 34937 ft 515 kts 114°
2026-04-07 07:29 49.43409 13.58152 34978 ft 515 kts 114°
2026-04-07 07:30 49.40896 13.65455 35258 ft 514 kts 115°
2026-04-07 07:30 49.39227 13.70290 35418 ft 514 kts 115°
2026-04-07 07:30 49.37950 13.73988 35344 ft 517 kts 115°
2026-04-07 07:31 49.35713 13.80450 35312 ft 517 kts 115°
2026-04-07 07:31 49.32340 13.90162 35311 ft 515 kts 115°
2026-04-07 07:32 49.28963 13.99847 35312 ft 516 kts 115°
2026-04-07 07:32 49.25569 14.09546 35310 ft 517 kts 115°
2026-04-07 07:33 49.22171 14.19217 35313 ft 517 kts 115°
2026-04-07 07:33 49.18755 14.28907 35312 ft 517 kts 115°
2026-04-07 07:34 49.15331 14.38580 35315 ft 518 kts 115°
2026-04-07 07:34 49.11892 14.48262 35319 ft 519 kts 115°
2026-04-07 07:35 49.08444 14.57930 35300 ft 519 kts 115°
2026-04-07 07:35 49.04987 14.67588 35317 ft 519 kts 115°
2026-04-07 07:36 49.01519 14.77242 35291 ft 521 kts 115°
2026-04-07 07:36 48.98038 14.86895 35318 ft 519 kts 115°
2026-04-07 07:37 48.94581 14.96443 35297 ft 519 kts 115°
2026-04-07 07:37 48.91068 15.06116 35313 ft 519 kts 115°
2026-04-07 07:38 48.87567 15.15719 35300 ft 520 kts 115°
2026-04-07 07:38 48.84055 15.25318 35297 ft 521 kts 115°
2026-04-07 07:39 48.80521 15.34937 35297 ft 521 kts 115°
2026-04-07 07:39 48.76984 15.44529 35319 ft 521 kts 116°
2026-04-07 07:40 48.73436 15.54121 35296 ft 523 kts 115°
2026-04-07 07:40 48.69867 15.63733 35295 ft 523 kts 116°
2026-04-07 07:41 48.66287 15.73337 35274 ft 523 kts 116°
2026-04-07 07:41 48.62717 15.82879 35314 ft 520 kts 116°
2026-04-07 07:42 48.59169 15.92330 35297 ft 521 kts 116°
2026-04-07 07:42 48.55585 16.01844 35298 ft 521 kts 116°
2026-04-07 07:43 48.51988 16.11358 35299 ft 521 kts 116°
2026-04-07 07:43 48.48971 16.19309 35317 ft 522 kts 116°
2026-04-07 07:44 48.44770 16.30344 35299 ft 523 kts 116°
2026-04-07 07:44 48.41726 16.38310 35301 ft 524 kts 116°
2026-04-07 07:45 48.38110 16.47740 35308 ft 524 kts 116°
2026-04-07 07:45 48.34458 16.57231 35319 ft 524 kts 116°
2026-04-07 07:46 48.30799 16.66709 35308 ft 526 kts 116°
2026-04-07 07:46 48.27124 16.76193 35308 ft 524 kts 117°
2026-04-07 07:47 48.23456 16.85623 35303 ft 523 kts 117°
2026-04-07 07:47 48.19781 16.95041 35291 ft 523 kts 117°
2026-04-07 07:48 48.16287 17.04586 35292 ft 521 kts 112°
2026-04-07 07:48 48.13204 17.14387 35292 ft 520 kts 111°
2026-04-07 07:49 48.10121 17.24185 35293 ft 520 kts 111°
2026-04-07 07:49 48.06959 17.33935 35290 ft 522 kts 112°
2026-04-07 07:50 48.03739 17.43701 35284 ft 525 kts 112°
2026-04-07 07:50 48.00496 17.53476 35280 ft 525 kts 112°
2026-04-07 07:51 47.97245 17.63243 35275 ft 525 kts 112°
2026-04-07 07:51 47.93993 17.72988 35272 ft 525 kts 112°
2026-04-07 07:52 47.90755 17.82655 35267 ft 525 kts 112°
2026-04-07 07:52 47.87490 17.92367 35265 ft 523 kts 112°
2026-04-07 07:53 47.84229 18.02030 35286 ft 522 kts 112°
2026-04-07 07:53 47.80953 18.11707 35269 ft 524 kts 112°
2026-04-07 07:54 47.77663 18.21385 35262 ft 525 kts 112°
2026-04-07 07:54 47.74361 18.31060 35260 ft 525 kts 112°
2026-04-07 07:55 47.71151 18.40773 35274 ft 524 kts 110°
2026-04-07 07:55 47.68122 18.50620 35254 ft 525 kts 110°
2026-04-07 07:56 47.65086 18.60470 35257 ft 525 kts 110°
2026-04-07 07:56 47.62036 18.70197 35260 ft 525 kts 110°
2026-04-07 07:57 47.58899 18.80105 35255 ft 527 kts 110°
2026-04-07 07:57 47.55768 18.89957 35255 ft 530 kts 110°
2026-04-07 07:58 47.52614 18.99834 35260 ft 530 kts 110°
2026-04-07 07:58 47.49456 19.09691 35262 ft 531 kts 110°
2026-04-07 07:59 47.46286 19.19552 35265 ft 532 kts 110°
2026-04-07 07:59 47.43103 19.29415 35257 ft 532 kts 110°
2026-04-07 08:00 47.39914 19.39253 35264 ft 531 kts 110°
2026-04-07 08:00 47.36720 19.49073 35266 ft 531 kts 110°
2026-04-07 08:01 47.33515 19.58892 35248 ft 532 kts 110°
2026-04-07 08:01 47.30440 19.68275 35230 ft 532 kts 110°
2026-04-07 08:02 47.27215 19.78078 35223 ft 532 kts 110°
2026-04-07 08:02 47.24088 19.87546 35231 ft 533 kts 110°
2026-04-07 08:03 47.20779 19.97533 35229 ft 535 kts 110°
2026-04-07 08:03 47.17511 20.07356 35235 ft 535 kts 110°
2026-04-07 08:04 47.14235 20.17162 35237 ft 535 kts 110°
2026-04-07 08:04 47.10947 20.26968 35236 ft 537 kts 110°
2026-04-07 08:05 47.07662 20.36733 35212 ft 537 kts 110°
2026-04-07 08:05 47.04345 20.46553 35199 ft 537 kts 111°
2026-04-07 08:06 47.01018 20.56363 35201 ft 537 kts 111°
2026-04-07 08:06 46.97687 20.66151 35200 ft 537 kts 111°
2026-04-07 08:07 46.94341 20.75946 35206 ft 537 kts 111°
2026-04-07 08:07 46.90992 20.85711 35201 ft 537 kts 111°
2026-04-07 08:08 46.87630 20.95482 35206 ft 539 kts 111°
2026-04-07 08:08 46.84251 21.05264 35204 ft 540 kts 111°
2026-04-07 08:09 46.80858 21.15047 35198 ft 540 kts 111°
2026-04-07 08:09 46.77459 21.24812 35209 ft 540 kts 111°
2026-04-07 08:10 46.74048 21.34581 35201 ft 541 kts 111°
2026-04-07 08:10 46.70622 21.44352 35199 ft 541 kts 111°
2026-04-07 08:11 46.67168 21.54118 35202 ft 542 kts 112°
2026-04-07 08:11 46.63558 21.63771 35198 ft 544 kts 113°
2026-04-07 08:12 46.59889 21.73419 35201 ft 545 kts 113°
2026-04-07 08:12 46.56234 21.83067 35203 ft 545 kts 113°
2026-04-07 08:13 46.52584 21.92718 35211 ft 545 kts 113°
2026-04-07 08:13 46.48949 22.02314 35169 ft 547 kts 113°
2026-04-07 08:14 46.45254 22.12027 35199 ft 545 kts 113°
2026-04-07 08:14 46.41609 22.21571 35200 ft 544 kts 113°
2026-04-07 08:15 46.37933 22.31166 35203 ft 546 kts 113°
2026-04-07 08:15 46.34235 22.40783 35196 ft 547 kts 114°
2026-04-07 08:16 46.28673 22.55183 35211 ft 546 kts 114°
2026-04-07 08:17 46.24951 22.64778 35197 ft 548 kts 114°
2026-04-07 08:17 46.21214 22.74378 35196 ft 549 kts 114°
2026-04-07 08:18 46.17461 22.83978 35190 ft 549 kts 114°
2026-04-07 08:18 46.13706 22.93555 35189 ft 549 kts 114°
2026-04-07 08:19 46.09932 23.03153 35191 ft 551 kts 114°
2026-04-07 08:19 46.06143 23.12751 35191 ft 551 kts 114°
2026-04-07 08:20 46.02344 23.22342 35181 ft 552 kts 114°
2026-04-07 08:20 45.98537 23.31919 35189 ft 551 kts 114°
2026-04-07 08:21 45.94721 23.41483 35189 ft 551 kts 115°
2026-04-07 08:21 45.90901 23.51024 35191 ft 551 kts 115°
2026-04-07 08:22 45.87068 23.60566 35193 ft 552 kts 115°
2026-04-07 08:22 45.83226 23.70098 35189 ft 552 kts 115°
2026-04-07 08:23 45.79377 23.79615 35187 ft 552 kts 115°
2026-04-07 08:23 45.75521 23.89114 35183 ft 552 kts 115°
2026-04-07 08:24 45.71647 23.98627 35184 ft 552 kts 115°
2026-04-07 08:24 45.67771 24.08111 35180 ft 552 kts 115°
2026-04-07 08:25 45.63886 24.17585 35197 ft 553 kts 115°
2026-04-07 08:25 45.59950 24.27047 35174 ft 555 kts 116°
2026-04-07 08:26 45.56625 24.34877 35176 ft 555 kts 116°
2026-04-07 08:26 45.51972 24.45791 35168 ft 551 kts 117°
2026-04-07 08:27 45.47992 24.55125 35161 ft 551 kts 117°
2026-04-07 08:27 45.44007 24.64461 35162 ft 551 kts 117°
2026-04-07 08:28 45.40668 24.72258 35154 ft 551 kts 117°
2026-04-07 08:28 45.36667 24.81575 35152 ft 552 kts 117°
2026-04-07 08:29 45.32652 24.90892 35138 ft 553 kts 117°
2026-04-07 08:29 45.28622 25.00208 35136 ft 553 kts 117°
2026-04-07 08:30 45.24583 25.09514 35156 ft 553 kts 117°
2026-04-07 08:30 45.20536 25.18811 35143 ft 555 kts 118°
2026-04-07 08:31 45.16470 25.28120 35142 ft 555 kts 118°
2026-04-07 08:31 45.12396 25.37416 35165 ft 556 kts 118°
2026-04-07 08:32 45.08311 25.46708 35134 ft 556 kts 118°
2026-04-07 08:32 45.04250 25.55911 35137 ft 554 kts 118°
2026-04-07 08:33 45.00165 25.65141 35145 ft 554 kts 118°
2026-04-07 08:33 44.96076 25.74354 35146 ft 555 kts 118°
2026-04-07 08:34 44.91963 25.83590 35152 ft 556 kts 118°
2026-04-07 08:34 44.87843 25.92809 35153 ft 556 kts 119°
2026-04-07 08:35 44.83717 26.02012 35153 ft 556 kts 119°
2026-04-07 08:35 44.79570 26.11234 35154 ft 557 kts 119°
2026-04-07 08:36 44.75419 26.20433 35154 ft 557 kts 119°
2026-04-07 08:36 44.71260 26.29621 35155 ft 557 kts 120°
2026-04-07 08:37 44.67096 26.38790 35149 ft 557 kts 120°
2026-04-07 08:37 44.62913 26.47974 35118 ft 557 kts 120°
2026-04-07 08:38 44.58737 26.57114 35155 ft 555 kts 120°
2026-04-07 08:38 44.54714 26.66334 35137 ft 553 kts 118°
2026-04-07 08:39 44.50798 26.75614 35138 ft 553 kts 118°
2026-04-07 08:39 44.46854 26.84881 35149 ft 554 kts 118°
2026-04-07 08:40 44.42879 26.94113 35147 ft 554 kts 118°
2026-04-07 08:40 44.38889 27.03320 35145 ft 554 kts 119°
2026-04-07 08:41 44.34891 27.12516 35149 ft 554 kts 119°
2026-04-07 08:41 44.30887 27.21699 35145 ft 553 kts 119°
2026-04-07 08:42 44.26876 27.30869 35146 ft 553 kts 119°
2026-04-07 08:42 44.22861 27.40023 35144 ft 553 kts 119°
2026-04-07 08:43 44.18831 27.49182 35143 ft 554 kts 120°
2026-04-07 08:43 44.14798 27.58316 35139 ft 553 kts 120°
2026-04-07 08:44 44.10761 27.67431 35139 ft 553 kts 120°
2026-04-07 08:44 44.06722 27.76521 35144 ft 552 kts 120°
2026-04-07 08:45 44.02674 27.85604 35134 ft 553 kts 120°
2026-04-07 08:45 43.98612 27.94688 35129 ft 553 kts 120°
2026-04-07 08:46 43.94548 28.03748 35132 ft 553 kts 120°
2026-04-07 08:46 43.90468 28.12820 35129 ft 555 kts 120°
2026-04-07 08:47 43.86374 28.21891 35127 ft 555 kts 121°
2026-04-07 08:47 43.82273 28.30948 35134 ft 555 kts 121°
2026-04-07 08:48 43.78161 28.40003 35129 ft 556 kts 121°
2026-04-07 08:48 43.74038 28.49055 35132 ft 556 kts 121°
2026-04-07 08:49 43.69899 28.58092 35133 ft 556 kts 121°
2026-04-07 08:49 43.65747 28.67089 35135 ft 555 kts 121°
2026-04-07 08:50 43.61585 28.76077 35102 ft 555 kts 121°
2026-04-07 08:50 43.57428 28.85036 35143 ft 553 kts 122°
2026-04-07 08:51 43.53278 28.93959 35134 ft 553 kts 122°
2026-04-07 08:51 43.49119 29.02872 35135 ft 553 kts 122°
2026-04-07 08:52 43.44954 29.11773 35126 ft 553 kts 122°
2026-04-07 08:52 43.40783 29.20657 35132 ft 553 kts 122°
2026-04-07 08:53 43.36602 29.29535 35129 ft 553 kts 122°
2026-04-07 08:53 43.32420 29.38391 35135 ft 553 kts 123°
2026-04-07 08:54 43.28228 29.47239 35127 ft 553 kts 123°
2026-04-07 08:54 43.24053 29.56025 35127 ft 553 kts 123°
2026-04-07 08:55 43.19818 29.64911 35124 ft 553 kts 123°
2026-04-07 08:55 43.15605 29.73726 35121 ft 553 kts 123°
2026-04-07 08:56 43.11411 29.82474 35121 ft 553 kts 123°
2026-04-07 08:56 43.07186 29.91259 35133 ft 552 kts 123°
2026-04-07 08:57 43.02949 30.00044 35116 ft 553 kts 123°
2026-04-07 08:57 42.98702 30.08824 35118 ft 554 kts 123°
2026-04-07 08:58 42.94449 30.17591 35127 ft 554 kts 123°
2026-04-07 08:58 42.90182 30.26360 35113 ft 555 kts 123°
2026-04-07 08:59 42.85899 30.35136 35113 ft 556 kts 123°
2026-04-07 08:59 42.81606 30.43908 35119 ft 556 kts 123°
2026-04-07 09:00 42.77310 30.52660 35110 ft 556 kts 124°
2026-04-07 09:00 42.73953 30.62079 35113 ft 552 kts 103°
2026-04-07 09:01 42.72512 30.72273 35111 ft 549 kts 95°
2026-04-07 09:01 42.71485 30.82568 35102 ft 550 kts 94°
2026-04-07 09:02 42.70490 30.92875 35102 ft 550 kts 94°
2026-04-07 09:02 42.69449 31.03184 35102 ft 550 kts 95°
2026-04-07 09:03 42.68376 31.13477 35093 ft 550 kts 95°
2026-04-07 09:03 42.67289 31.23765 35094 ft 549 kts 95°
2026-04-07 09:04 42.66195 31.34036 35091 ft 549 kts 95°
2026-04-07 09:04 42.65093 31.44310 35083 ft 551 kts 95°
2026-04-07 09:05 42.63977 31.54624 35081 ft 552 kts 96°
2026-04-07 09:05 42.62862 31.64841 35083 ft 552 kts 96°
2026-04-07 09:06 42.61726 31.75153 35073 ft 552 kts 96°
2026-04-07 09:06 42.60583 31.85451 35074 ft 552 kts 96°
2026-04-07 09:07 42.59432 31.95737 35075 ft 551 kts 96°
2026-04-07 09:07 42.58280 32.06015 35067 ft 551 kts 96°
2026-04-07 09:08 42.57130 32.16287 35061 ft 551 kts 96°
2026-04-07 09:08 42.55948 32.26546 35061 ft 549 kts 97°
2026-04-07 09:09 42.54760 32.36769 35062 ft 548 kts 97°
2026-04-07 09:09 42.53770 32.45250 35056 ft 549 kts 97°
2026-04-07 09:10 42.52568 32.55492 35037 ft 550 kts 97°
2026-04-07 09:10 42.51357 32.65727 35048 ft 548 kts 98°
2026-04-07 09:11 42.50142 32.75909 35044 ft 548 kts 98°
2026-04-07 09:11 42.48916 32.86107 35033 ft 548 kts 98°
2026-04-07 09:12 42.47684 32.96283 35034 ft 548 kts 98°
2026-04-07 09:12 42.46441 33.06467 35031 ft 548 kts 98°
2026-04-07 09:13 42.45191 33.16644 35031 ft 548 kts 98°
2026-04-07 09:13 42.43928 33.26831 35024 ft 548 kts 98°
2026-04-07 09:14 42.42656 33.36986 35025 ft 546 kts 98°
2026-04-07 09:14 42.41384 33.47109 35027 ft 546 kts 99°
2026-04-07 09:15 42.40108 33.57180 35015 ft 547 kts 99°
2026-04-07 09:15 42.38809 33.67327 35011 ft 547 kts 99°
2026-04-07 09:16 42.37506 33.77450 35009 ft 546 kts 99°
2026-04-07 09:16 42.36196 33.87552 35001 ft 545 kts 99°
2026-04-07 09:17 42.34883 33.97646 35001 ft 545 kts 99°
2026-04-07 09:17 42.33562 34.07735 34998 ft 544 kts 99°
2026-04-07 09:18 42.32237 34.17785 34992 ft 543 kts 99°
2026-04-07 09:18 42.30233 34.32851 34994 ft 543 kts 99°
2026-04-07 09:19 42.28890 34.42871 34991 ft 542 kts 99°
2026-04-07 09:19 42.27538 34.52865 34992 ft 541 kts 100°
2026-04-07 09:20 42.26175 34.62856 34991 ft 541 kts 100°
2026-04-07 09:20 42.24805 34.72842 34984 ft 541 kts 100°
2026-04-07 09:21 42.23431 34.82799 34991 ft 538 kts 100°
2026-04-07 09:21 42.22050 34.92716 34987 ft 537 kts 101°
2026-04-07 09:22 42.20658 35.02617 34984 ft 537 kts 101°
2026-04-07 09:22 42.19260 35.12511 34982 ft 535 kts 101°
2026-04-07 09:23 42.17863 35.22341 35005 ft 534 kts 101°
2026-04-07 09:23 42.16455 35.32182 35003 ft 534 kts 101°
2026-04-07 09:24 42.15051 35.41938 34984 ft 534 kts 101°
2026-04-07 09:24 42.13643 35.51719 34985 ft 530 kts 101°
2026-04-07 09:25 42.12227 35.61439 34982 ft 529 kts 101°
2026-04-07 09:25 42.10804 35.71149 34982 ft 529 kts 101°
2026-04-07 09:26 42.09374 35.80857 34981 ft 527 kts 101°
2026-04-07 09:26 42.07943 35.90519 34979 ft 525 kts 101°
2026-04-07 09:27 42.06507 36.00152 34984 ft 525 kts 102°
2026-04-07 09:27 42.05063 36.09783 34981 ft 525 kts 102°
2026-04-07 09:28 42.03613 36.19394 34983 ft 524 kts 101°
2026-04-07 09:28 42.02157 36.28990 34986 ft 523 kts 101°
2026-04-07 09:29 42.00695 36.38566 34989 ft 523 kts 102°
2026-04-07 09:29 41.99224 36.48148 34996 ft 523 kts 102°
2026-04-07 09:30 41.97744 36.57729 34988 ft 523 kts 102°
2026-04-07 09:30 41.96257 36.67298 34988 ft 523 kts 102°
2026-04-07 09:31 41.94762 36.76868 34988 ft 523 kts 102°
2026-04-07 09:31 41.93260 36.86423 34987 ft 523 kts 102°
2026-04-07 09:32 41.91749 36.95980 34988 ft 523 kts 102°
2026-04-07 09:32 41.90496 37.05584 34988 ft 522 kts 92°
2026-04-07 09:33 41.90199 37.15319 34990 ft 522 kts 90°
2026-04-07 09:33 41.90063 37.25058 34991 ft 521 kts 90°
2026-04-07 09:34 41.89939 37.34788 34992 ft 521 kts 90°
2026-04-07 09:34 41.89792 37.44513 34993 ft 521 kts 90°
2026-04-07 09:35 41.89626 37.54231 34994 ft 521 kts 90°
2026-04-07 09:35 41.89450 37.63886 34994 ft 520 kts 90°
2026-04-07 09:36 41.89266 37.73579 34990 ft 519 kts 90°
2026-04-07 09:36 41.89075 37.83265 34991 ft 519 kts 90°
2026-04-07 09:37 41.88876 37.92950 34995 ft 519 kts 91°
2026-04-07 09:37 41.88668 38.02640 34992 ft 519 kts 90°
2026-04-07 09:38 41.88453 38.12301 34993 ft 517 kts 90°
2026-04-07 09:38 41.88231 38.21936 34993 ft 517 kts 91°
2026-04-07 09:39 41.88000 38.31584 34993 ft 517 kts 91°
2026-04-07 09:39 41.87761 38.41219 34993 ft 517 kts 91°
2026-04-07 09:40 41.87514 38.50848 34993 ft 515 kts 91°
2026-04-07 09:40 41.87260 38.60442 34996 ft 514 kts 91°
2026-04-07 09:41 41.86999 38.70022 34996 ft 514 kts 91°
2026-04-07 09:41 41.86730 38.79608 34996 ft 514 kts 91°
2026-04-07 09:42 41.86452 38.89184 34997 ft 514 kts 91°
2026-04-07 09:42 41.86167 38.98756 34996 ft 513 kts 91°
2026-04-07 09:43 41.85875 39.08319 34997 ft 513 kts 91°
2026-04-07 09:43 41.85574 39.17871 34998 ft 512 kts 91°
2026-04-07 09:44 41.85266 39.27414 35004 ft 512 kts 91°
2026-04-07 09:44 41.84951 39.36947 35004 ft 510 kts 91°
2026-04-07 09:45 41.84628 39.46446 35007 ft 510 kts 91°
2026-04-07 09:45 41.84302 39.55947 35004 ft 510 kts 91°
2026-04-07 09:46 41.83966 39.65437 35015 ft 510 kts 91°
2026-04-07 09:46 41.83619 39.74913 35007 ft 508 kts 92°
2026-04-07 09:47 41.83266 39.84375 35009 ft 507 kts 92°
2026-04-07 09:47 41.82911 39.93743 35009 ft 506 kts 92°
2026-04-07 09:48 41.82543 40.03241 35007 ft 506 kts 92°
2026-04-07 09:48 41.82172 40.12608 35006 ft 506 kts 92°
2026-04-07 09:49 41.81795 40.22031 35007 ft 506 kts 92°
2026-04-07 09:49 41.81404 40.31432 35004 ft 505 kts 92°
2026-04-07 09:50 41.81005 40.40837 35010 ft 505 kts 93°
2026-04-07 09:50 41.80601 40.50201 35011 ft 505 kts 93°
2026-04-07 09:51 41.80189 40.59595 35008 ft 505 kts 93°
2026-04-07 09:51 41.79771 40.68995 35007 ft 505 kts 93°
2026-04-07 09:52 41.79319 40.78389 34997 ft 505 kts 93°
2026-04-07 09:52 41.78847 40.87775 34999 ft 505 kts 94°
2026-04-07 09:53 41.78371 40.97168 35000 ft 505 kts 94°
2026-04-07 09:53 41.77891 41.06565 35003 ft 506 kts 94°
2026-04-07 09:54 41.77487 41.14371 34997 ft 506 kts 94°
2026-04-07 09:54 41.76994 41.23772 35008 ft 506 kts 94°
2026-04-07 09:55 41.76494 41.33167 35015 ft 506 kts 94°
2026-04-07 09:55 41.75985 41.42579 35021 ft 507 kts 94°
2026-04-07 09:56 41.75468 41.51984 35015 ft 506 kts 94°
2026-04-07 09:56 41.74947 41.61336 35016 ft 506 kts 94°
2026-04-07 09:57 41.74412 41.70777 35012 ft 506 kts 94°
2026-04-07 09:57 41.73873 41.80178 35002 ft 506 kts 95°
2026-04-07 09:58 41.73326 41.89561 34998 ft 505 kts 95°
2026-04-07 09:58 41.72772 41.98943 34985 ft 505 kts 95°
2026-04-07 09:59 41.72210 42.08338 34980 ft 509 kts 95°
2026-04-07 09:59 41.71636 42.17797 34969 ft 510 kts 95°
2026-04-07 10:00 41.71051 42.27265 34972 ft 511 kts 95°
2026-04-07 10:00 41.70458 42.36743 34972 ft 511 kts 95°
2026-04-07 10:01 41.69858 42.46222 34967 ft 511 kts 95°
2026-04-07 10:01 41.69249 42.55709 34966 ft 512 kts 95°
2026-04-07 10:02 41.68633 42.65177 34963 ft 511 kts 95°
2026-04-07 10:02 41.68012 42.74625 34961 ft 509 kts 95°
2026-04-07 10:03 41.67383 42.84056 34954 ft 509 kts 96°
2026-04-07 10:03 41.66536 42.93444 34949 ft 508 kts 101°
2026-04-07 10:04 41.65203 43.02721 34944 ft 508 kts 102°
2026-04-07 10:04 41.63847 43.12008 34946 ft 509 kts 101°
2026-04-07 10:05 41.62560 43.21321 34948 ft 509 kts 101°
2026-04-07 10:05 41.61314 43.30578 34950 ft 509 kts 101°
2026-04-07 10:06 41.60053 43.39941 34957 ft 509 kts 101°
2026-04-07 10:06 41.58785 43.49264 34960 ft 510 kts 102°
2026-04-07 10:07 41.57506 43.58590 34958 ft 511 kts 102°
2026-04-07 10:07 41.56218 43.67922 34958 ft 511 kts 102°
2026-04-07 10:08 41.54924 43.77245 34954 ft 510 kts 102°
2026-04-07 10:08 41.53633 43.86479 34958 ft 510 kts 102°
2026-04-07 10:09 41.52324 43.95789 34961 ft 510 kts 102°
2026-04-07 10:09 41.51009 44.05085 34961 ft 509 kts 102°
2026-04-07 10:10 41.49688 44.14371 34960 ft 509 kts 102°
2026-04-07 10:10 41.48360 44.23641 34959 ft 509 kts 102°
2026-04-07 10:11 41.47024 44.32920 34963 ft 509 kts 102°
2026-04-07 10:11 41.45678 44.42204 34965 ft 509 kts 102°
2026-04-07 10:12 41.44328 44.51469 34968 ft 509 kts 103°
2026-04-07 10:12 41.42968 44.60744 34963 ft 509 kts 103°
2026-04-07 10:13 41.41601 44.70012 34968 ft 510 kts 103°
2026-04-07 10:13 41.40228 44.79267 34973 ft 509 kts 103°
2026-04-07 10:14 41.38846 44.88526 34970 ft 509 kts 103°
2026-04-07 10:14 41.37459 44.97772 34971 ft 509 kts 103°
2026-04-07 10:15 41.36030 45.07004 34974 ft 509 kts 106°
2026-04-07 10:15 41.33934 45.15978 34974 ft 507 kts 110°
2026-04-07 10:16 41.31664 45.24860 34974 ft 507 kts 111°
2026-04-07 10:16 41.29361 45.33726 34974 ft 507 kts 111°
2026-04-07 10:17 41.27058 45.42597 34972 ft 506 kts 111°
2026-04-07 10:17 41.24766 45.51432 34965 ft 505 kts 111°
2026-04-07 10:18 41.22470 45.60256 34971 ft 505 kts 111°
2026-04-07 10:18 41.20171 45.69063 34974 ft 505 kts 111°
2026-04-07 10:19 41.16691 45.82269 34969 ft 505 kts 111°
2026-04-07 10:20 41.14361 45.91066 34985 ft 506 kts 111°
2026-04-07 10:20 41.12022 45.99873 34985 ft 506 kts 111°
2026-04-07 10:21 41.09678 46.08670 34984 ft 506 kts 111°
2026-04-07 10:21 41.07326 46.17466 34996 ft 506 kts 111°
2026-04-07 10:22 41.04966 46.26259 34996 ft 507 kts 111°
2026-04-07 10:22 41.02599 46.35067 34997 ft 507 kts 111°
2026-04-07 10:23 41.00249 46.43872 34986 ft 506 kts 111°
2026-04-07 10:23 40.97899 46.52660 34996 ft 507 kts 112°
2026-04-07 10:24 40.95533 46.61456 35004 ft 507 kts 112°
2026-04-07 10:24 40.93177 46.70180 35004 ft 507 kts 112°
2026-04-07 10:25 40.90798 46.78957 35003 ft 508 kts 112°
2026-04-07 10:25 40.88412 46.87741 35002 ft 508 kts 112°
2026-04-07 10:26 40.86001 46.96526 35012 ft 508 kts 112°
2026-04-07 10:26 40.83584 47.05294 34998 ft 508 kts 112°
2026-04-07 10:27 40.81158 47.14072 35004 ft 509 kts 112°
2026-04-07 10:27 40.78728 47.22846 34995 ft 509 kts 112°
2026-04-07 10:28 40.76272 47.31601 34994 ft 509 kts 112°
2026-04-07 10:28 40.73812 47.40345 34991 ft 509 kts 113°
2026-04-07 10:29 40.71356 47.49096 34985 ft 509 kts 113°
2026-04-07 10:29 40.68893 47.57838 34984 ft 509 kts 113°
2026-04-07 10:30 40.66424 47.66573 34977 ft 509 kts 113°
2026-04-07 10:30 40.63946 47.75314 34976 ft 509 kts 113°
2026-04-07 10:31 40.61462 47.84045 34976 ft 509 kts 113°
2026-04-07 10:31 40.58974 47.92763 34974 ft 509 kts 113°
2026-04-07 10:32 40.56579 48.01554 34975 ft 514 kts 110°
2026-04-07 10:32 40.54428 48.10530 34968 ft 516 kts 110°
2026-04-07 10:33 40.52284 48.19536 34968 ft 516 kts 110°
2026-04-07 10:33 40.50099 48.28503 34977 ft 515 kts 110°
2026-04-07 10:34 40.47878 48.37472 34973 ft 517 kts 111°
2026-04-07 10:34 40.45645 48.46439 34962 ft 517 kts 111°
2026-04-07 10:35 40.43785 48.53892 34974 ft 517 kts 111°
2026-04-07 10:35 40.41541 48.62858 34962 ft 518 kts 111°
2026-04-07 10:36 40.39283 48.71846 34957 ft 519 kts 111°
2026-04-07 10:36 40.37021 48.80820 34958 ft 519 kts 111°
2026-04-07 10:37 40.34748 48.89798 34944 ft 519 kts 111°
2026-04-07 10:37 40.32465 48.98790 34958 ft 520 kts 111°
2026-04-07 10:38 40.30190 49.07720 34962 ft 520 kts 111°
2026-04-07 10:38 40.27874 49.16689 34966 ft 520 kts 111°
2026-04-07 10:39 40.25542 49.25652 34962 ft 521 kts 111°
2026-04-07 10:39 40.23214 49.34634 34975 ft 522 kts 111°
2026-04-07 10:40 40.20879 49.43631 34978 ft 522 kts 111°
2026-04-07 10:40 40.18882 49.52768 34971 ft 526 kts 101°
2026-04-07 10:41 40.17850 49.62264 34979 ft 529 kts 99°
2026-04-07 10:41 40.16988 49.71811 34980 ft 528 kts 98°
2026-04-07 10:42 40.16135 49.81350 34981 ft 527 kts 99°
2026-04-07 10:42 40.15257 49.90864 34973 ft 527 kts 99°
2026-04-07 10:43 40.14357 50.00390 34978 ft 529 kts 99°
2026-04-07 10:43 40.13444 50.09949 34983 ft 530 kts 99°
2026-04-07 10:44 40.12525 50.19491 34984 ft 529 kts 99°
2026-04-07 10:44 40.11599 50.29033 34985 ft 529 kts 99°
2026-04-07 10:45 40.10665 50.38571 34987 ft 530 kts 99°
2026-04-07 10:45 40.09721 50.48134 34992 ft 531 kts 99°
2026-04-07 10:46 40.08768 50.57703 34994 ft 531 kts 99°
2026-04-07 10:46 40.07808 50.67260 34998 ft 531 kts 99°
2026-04-07 10:47 40.06840 50.76809 34998 ft 531 kts 99°
2026-04-07 10:47 40.05862 50.86384 34996 ft 532 kts 99°
2026-04-07 10:48 40.04876 50.95960 35005 ft 532 kts 99°
2026-04-07 10:48 40.03881 51.05537 35011 ft 532 kts 99°
2026-04-07 10:49 40.02879 51.15108 35005 ft 532 kts 99°
2026-04-07 10:49 40.01870 51.24667 35015 ft 531 kts 99°
2026-04-07 10:50 40.00854 51.34214 35000 ft 531 kts 99°
2026-04-07 10:50 39.99829 51.43765 35005 ft 531 kts 100°
2026-04-07 10:51 39.98528 51.53222 35007 ft 529 kts 105°
2026-04-07 10:51 39.96833 51.62584 35012 ft 531 kts 106°
2026-04-07 10:52 39.95080 51.71874 35008 ft 531 kts 106°
2026-04-07 10:52 39.93308 51.81221 35011 ft 531 kts 106°
2026-04-07 10:53 39.91537 51.90565 35006 ft 532 kts 106°
2026-04-07 10:53 39.89757 51.99936 35010 ft 534 kts 106°
2026-04-07 10:54 39.87966 52.09327 35014 ft 534 kts 106°
2026-04-07 10:54 39.86167 52.18709 35014 ft 534 kts 106°
2026-04-07 10:55 39.84362 52.28081 35016 ft 535 kts 106°
2026-04-07 10:55 39.82546 52.37460 35015 ft 534 kts 106°
2026-04-07 10:56 39.80725 52.46828 35015 ft 534 kts 106°
2026-04-07 10:56 39.78895 52.56196 35002 ft 534 kts 106°
2026-04-07 10:57 39.77053 52.65577 35016 ft 536 kts 106°
2026-04-07 10:57 39.75202 52.74966 35012 ft 536 kts 106°
2026-04-07 10:58 39.73339 52.84371 35021 ft 537 kts 106°
2026-04-07 10:58 39.71510 52.93745 35009 ft 535 kts 106°
2026-04-07 10:59 39.69705 53.03057 35011 ft 535 kts 106°
2026-04-07 10:59 39.67865 53.12486 35011 ft 535 kts 106°
2026-04-07 11:00 39.66037 53.21789 35007 ft 535 kts 106°
2026-04-07 11:00 39.64175 53.31209 35009 ft 537 kts 106°
2026-04-07 11:01 39.62319 53.40559 35010 ft 539 kts 106°
2026-04-07 11:01 39.60433 53.50020 35010 ft 538 kts 106°
2026-04-07 11:02 39.58566 53.59345 35000 ft 538 kts 106°
2026-04-07 11:02 39.56677 53.68733 35004 ft 539 kts 106°
2026-04-07 11:03 39.54764 53.78197 35002 ft 540 kts 106°
2026-04-07 11:03 39.52857 53.87592 34993 ft 539 kts 106°
2026-04-07 11:04 39.50940 53.96993 34996 ft 540 kts 106°
2026-04-07 11:04 39.49008 54.06400 34990 ft 540 kts 106°
2026-04-07 11:05 39.47067 54.15709 34988 ft 539 kts 107°
2026-04-07 11:05 39.45101 54.25077 34988 ft 539 kts 107°
2026-04-07 11:06 39.43115 54.34508 34983 ft 540 kts 107°
2026-04-07 11:06 39.41145 54.43829 34980 ft 541 kts 107°
2026-04-07 11:07 39.39155 54.53212 34986 ft 541 kts 107°
2026-04-07 11:07 39.37161 54.62568 34976 ft 538 kts 107°
2026-04-07 11:08 39.35167 54.71886 34976 ft 538 kts 107°
2026-04-07 11:08 39.33166 54.81194 34977 ft 538 kts 107°
2026-04-07 11:09 39.31157 54.90500 34977 ft 538 kts 107°
2026-04-07 11:09 39.29141 54.99801 34970 ft 539 kts 107°
2026-04-07 11:10 39.27113 55.09114 34971 ft 538 kts 107°
2026-04-07 11:10 39.25082 55.18405 34971 ft 537 kts 107°
2026-04-07 11:11 39.23047 55.27674 34978 ft 537 kts 107°
2026-04-07 11:11 39.21005 55.36936 34974 ft 537 kts 107°
2026-04-07 11:12 39.18952 55.46210 34976 ft 538 kts 107°
2026-04-07 11:12 39.16893 55.55472 34973 ft 538 kts 107°
2026-04-07 11:13 39.14846 55.64642 34963 ft 537 kts 107°
2026-04-07 11:13 39.12759 55.73923 34969 ft 540 kts 107°
2026-04-07 11:14 39.10661 55.83222 34971 ft 540 kts 107°
2026-04-07 11:14 39.08566 55.92471 34969 ft 537 kts 107°
2026-04-07 11:15 39.06464 56.01714 34962 ft 540 kts 107°
2026-04-07 11:15 39.04344 56.10999 34966 ft 542 kts 107°
2026-04-07 11:16 39.02211 56.20301 34965 ft 542 kts 108°
2026-04-07 11:16 39.00071 56.29604 34965 ft 542 kts 108°
2026-04-07 11:17 38.97732 56.38817 34967 ft 542 kts 111°
2026-04-07 11:17 38.95148 56.47925 34963 ft 542 kts 111°
2026-04-07 11:18 38.92571 56.57034 34965 ft 542 kts 111°
2026-04-07 11:18 38.90032 56.66150 34948 ft 542 kts 110°
2026-04-07 11:19 38.87926 56.73749 34959 ft 545 kts 110°
2026-04-07 11:19 38.85381 56.82914 34963 ft 545 kts 110°
2026-04-07 11:20 38.82831 56.92060 34955 ft 543 kts 111°
2026-04-07 11:20 38.80283 57.01161 34949 ft 544 kts 111°
2026-04-07 11:21 38.77711 57.10311 34948 ft 546 kts 111°
2026-04-07 11:21 38.75131 57.19460 34945 ft 544 kts 111°
2026-04-07 11:22 38.72556 57.28563 34935 ft 543 kts 111°
2026-04-07 11:22 38.69966 57.37683 34952 ft 547 kts 111°
2026-04-07 11:23 38.67361 57.46823 34949 ft 545 kts 111°
2026-04-07 11:23 38.64761 57.55917 34946 ft 544 kts 111°
2026-04-07 11:24 38.62153 57.65007 34940 ft 546 kts 111°
2026-04-07 11:24 38.59340 57.74018 34950 ft 545 kts 115°
2026-04-07 11:25 38.54582 57.87134 34950 ft 544 kts 116°
2026-04-07 11:25 38.51426 57.95923 34955 ft 544 kts 115°
2026-04-07 11:26 38.48326 58.04694 34950 ft 541 kts 115°
2026-04-07 11:26 38.45243 58.13438 34949 ft 540 kts 115°
2026-04-07 11:27 38.42153 58.22176 34948 ft 540 kts 115°
2026-04-07 11:27 38.38793 58.30731 34955 ft 539 kts 121°
2026-04-07 11:28 38.34995 58.38975 34954 ft 539 kts 122°
2026-04-07 11:28 38.31124 58.47157 34952 ft 540 kts 123°
2026-04-07 11:29 38.27241 58.55339 34959 ft 540 kts 123°
2026-04-07 11:29 38.23362 58.63517 34960 ft 540 kts 122°
2026-04-07 11:30 38.19478 58.71697 34958 ft 540 kts 123°
2026-04-07 11:30 38.15581 58.79887 34957 ft 544 kts 123°
2026-04-07 11:31 38.11652 58.88120 34954 ft 546 kts 123°
2026-04-07 11:31 38.07708 58.96367 34973 ft 546 kts 123°
2026-04-07 11:32 38.03757 59.04606 34968 ft 547 kts 123°
2026-04-07 11:32 37.99824 59.12785 34966 ft 546 kts 123°
2026-04-07 11:33 37.95864 59.21003 34969 ft 546 kts 123°
2026-04-07 11:33 37.91900 59.29206 34966 ft 546 kts 123°
2026-04-07 11:34 37.87712 59.37232 34974 ft 546 kts 128°
2026-04-07 11:34 37.83172 59.44911 34974 ft 544 kts 129°
2026-04-07 11:35 37.78575 59.52520 34970 ft 544 kts 130°
2026-04-07 11:35 37.73961 59.60135 34989 ft 547 kts 130°
2026-04-07 11:36 37.69345 59.67758 34982 ft 546 kts 129°
2026-04-07 11:36 37.64736 59.75362 34971 ft 545 kts 130°
2026-04-07 11:37 37.60109 59.82978 34985 ft 549 kts 130°
2026-04-07 11:37 37.55450 59.90628 34993 ft 549 kts 130°
2026-04-07 11:38 37.50818 59.98220 34969 ft 545 kts 130°
2026-04-07 11:38 37.46171 60.05815 34989 ft 550 kts 130°
2026-04-07 11:39 37.41487 60.13452 34985 ft 552 kts 130°
2026-04-07 11:39 37.36793 60.21090 34969 ft 549 kts 130°
2026-04-07 11:40 37.32126 60.28669 34985 ft 550 kts 130°
2026-04-07 11:40 37.27431 60.36273 34987 ft 551 kts 130°
2026-04-07 11:41 37.22726 60.43875 34990 ft 551 kts 130°
2026-04-07 11:41 37.18028 60.51450 34990 ft 547 kts 130°
2026-04-07 11:42 37.13381 60.58930 34993 ft 542 kts 130°
2026-04-07 11:42 37.08744 60.66372 34993 ft 542 kts 130°
2026-04-07 11:43 37.04087 60.73827 34993 ft 547 kts 130°
2026-04-07 11:43 36.99410 60.81299 34996 ft 545 kts 130°
2026-04-07 11:44 36.94818 60.88803 34997 ft 542 kts 128°
2026-04-07 11:44 36.90512 60.96554 34995 ft 545 kts 126°
2026-04-07 11:45 36.86186 61.04421 35013 ft 552 kts 127°
2026-04-07 11:45 36.81814 61.12244 35000 ft 546 kts 127°
2026-04-07 11:46 36.77453 61.19961 34988 ft 544 kts 127°
2026-04-07 11:46 36.73060 61.27697 35005 ft 549 kts 127°
2026-04-07 11:47 36.68643 61.35462 35010 ft 549 kts 128°
2026-04-07 11:47 36.64240 61.43194 35006 ft 545 kts 128°
2026-04-07 11:48 36.59828 61.50886 35004 ft 547 kts 128°
2026-04-07 11:48 36.55330 61.58541 35004 ft 549 kts 128°
2026-04-07 11:49 36.50813 61.66188 35000 ft 549 kts 128°
2026-04-07 11:49 36.46294 61.73846 34995 ft 550 kts 128°
2026-04-07 11:50 36.41755 61.81534 34996 ft 553 kts 128°
2026-04-07 11:50 36.37198 61.89241 34997 ft 554 kts 128°
2026-04-07 11:51 36.32641 61.96931 34976 ft 552 kts 128°
2026-04-07 11:51 36.28086 62.04599 34995 ft 553 kts 128°
2026-04-07 11:52 36.23516 62.12272 34995 ft 553 kts 128°
2026-04-07 11:52 36.18940 62.19939 34993 ft 554 kts 128°
2026-04-07 11:53 36.14351 62.27611 34990 ft 555 kts 129°
2026-04-07 11:53 36.09753 62.35282 34994 ft 555 kts 129°
2026-04-07 11:54 36.05181 62.42891 34990 ft 555 kts 129°
2026-04-07 11:54 36.00574 62.50542 34984 ft 555 kts 129°
2026-04-07 11:55 35.95952 62.58202 34996 ft 556 kts 129°
2026-04-07 11:55 35.91322 62.65857 34993 ft 556 kts 129°
2026-04-07 11:56 35.86691 62.73498 34992 ft 556 kts 129°
2026-04-07 11:56 35.82046 62.81142 34994 ft 558 kts 129°
2026-04-07 11:57 35.77387 62.88794 34993 ft 558 kts 129°
2026-04-07 11:57 35.72729 62.96429 34993 ft 558 kts 129°
2026-04-07 11:58 35.68062 63.04062 34987 ft 558 kts 129°
2026-04-07 11:58 35.63399 63.11670 34991 ft 558 kts 129°
2026-04-07 11:59 35.58724 63.19280 34992 ft 556 kts 129°
2026-04-07 11:59 35.54049 63.26824 34970 ft 555 kts 130°
2026-04-07 12:00 35.49325 63.34339 34994 ft 557 kts 130°
2026-04-07 12:00 35.44583 63.41869 34990 ft 558 kts 130°
2026-04-07 12:01 35.39844 63.49395 34986 ft 555 kts 130°
2026-04-07 12:01 35.37069 63.53800 34969 ft 554 kts 130°
2026-04-07 12:02 35.32354 63.61271 34985 ft 556 kts 130°
2026-04-07 12:02 35.27622 63.68768 34982 ft 557 kts 130°
2026-04-07 12:03 35.22894 63.76274 34984 ft 556 kts 130°
2026-04-07 12:03 35.18981 63.82478 34974 ft 553 kts 130°
2026-04-07 12:04 35.14265 63.89933 34972 ft 555 kts 130°
2026-04-07 12:04 35.09537 63.97394 34969 ft 556 kts 130°
2026-04-07 12:05 35.04792 64.04862 34964 ft 556 kts 130°
2026-04-07 12:05 35.00059 64.12296 34969 ft 555 kts 130°
2026-04-07 12:06 34.95319 64.19728 34967 ft 555 kts 130°
2026-04-07 12:06 34.90587 64.27130 34965 ft 555 kts 130°
2026-04-07 12:07 34.85830 64.34557 34956 ft 555 kts 131°
2026-04-07 12:07 34.81061 64.41981 34969 ft 556 kts 130°
2026-04-07 12:08 34.76303 64.49380 35053 ft 554 kts 130°
2026-04-07 12:08 34.73927 64.53068 35218 ft 554 kts 130°
2026-04-07 12:08 34.71551 64.56753 35373 ft 554 kts 131°
2026-04-07 12:09 34.69172 64.60439 35507 ft 554 kts 131°
2026-04-07 12:09 34.66789 64.64125 35666 ft 554 kts 131°
2026-04-07 12:09 34.64410 64.67803 35894 ft 553 kts 131°
2026-04-07 12:09 34.62034 64.71470 36136 ft 552 kts 131°
2026-04-07 12:10 34.59666 64.75124 36350 ft 550 kts 131°
2026-04-07 12:10 34.57300 64.78770 36579 ft 549 kts 131°
2026-04-07 12:10 34.54935 64.82411 36714 ft 550 kts 131°
2026-04-07 12:10 34.52561 64.86060 36809 ft 551 kts 131°
2026-04-07 12:11 34.50186 64.89707 36916 ft 552 kts 131°
2026-04-07 12:11 34.47802 64.93369 36931 ft 555 kts 131°
2026-04-07 12:11 34.42971 65.00752 36932 ft 562 kts 131°
2026-04-07 12:12 34.38111 65.08155 36921 ft 560 kts 131°
2026-04-07 12:12 34.33263 65.15532 36912 ft 561 kts 131°
2026-04-07 12:13 34.28389 65.22935 36921 ft 564 kts 131°
2026-04-07 12:13 34.23489 65.30363 36928 ft 565 kts 131°
2026-04-07 12:14 34.18609 65.37746 36925 ft 561 kts 131°
2026-04-07 12:14 34.13731 65.45111 36918 ft 562 kts 132°
2026-04-07 12:15 34.08833 65.52487 36915 ft 564 kts 132°
2026-04-07 12:15 34.03925 65.59877 36911 ft 564 kts 131°
2026-04-07 12:16 33.99029 65.67246 36902 ft 561 kts 132°
2026-04-07 12:16 33.94160 65.74559 36893 ft 558 kts 132°
2026-04-07 12:17 33.89292 65.81847 36888 ft 558 kts 132°
2026-04-07 12:17 33.84425 65.89123 36887 ft 559 kts 132°
2026-04-07 12:18 33.79548 65.96403 36871 ft 559 kts 132°
2026-04-07 12:18 33.74663 66.03680 36873 ft 560 kts 132°
2026-04-07 12:19 33.69754 66.10971 36860 ft 561 kts 133°
2026-04-07 12:19 33.64834 66.18265 36860 ft 562 kts 132°
2026-04-07 12:20 33.59915 66.25551 36875 ft 562 kts 132°
2026-04-07 12:20 33.54977 66.32848 36861 ft 563 kts 132°
2026-04-07 12:21 33.50035 66.40136 36862 ft 564 kts 132°
2026-04-07 12:21 33.45089 66.47415 36875 ft 563 kts 132°
2026-04-07 12:22 33.40124 66.54685 36873 ft 566 kts 133°
2026-04-07 12:22 33.35119 66.61972 36881 ft 566 kts 133°
2026-04-07 12:23 33.30133 66.69228 36881 ft 563 kts 133°
2026-04-07 12:23 33.25161 66.76451 36882 ft 563 kts 133°
2026-04-07 12:24 33.20209 66.83631 36885 ft 566 kts 133°
2026-04-07 12:24 33.15187 66.90897 36879 ft 568 kts 133°
2026-04-07 12:25 33.10175 66.98141 36873 ft 564 kts 133°
2026-04-07 12:25 33.05176 67.05349 36822 ft 563 kts 133°
2026-04-07 12:26 33.00163 67.12557 36854 ft 568 kts 133°
2026-04-07 12:26 32.95113 67.19808 36829 ft 569 kts 133°
2026-04-07 12:27 32.90059 67.27051 36828 ft 567 kts 133°
2026-04-07 12:27 32.85018 67.34264 36788 ft 566 kts 133°
2026-04-07 12:28 32.79960 67.41483 36800 ft 572 kts 133°
2026-04-07 12:29 32.72250 67.52240 36799 ft 571 kts 135°
2026-04-07 12:29 32.66962 67.59249 36801 ft 568 kts 135°
2026-04-07 12:30 32.61697 67.66232 36805 ft 569 kts 135°
2026-04-07 12:30 32.56431 67.73256 36819 ft 570 kts 135°
2026-04-07 12:31 32.51169 67.80287 36819 ft 570 kts 135°
2026-04-07 12:31 32.45987 67.87415 36783 ft 572 kts 133°
2026-04-07 12:32 32.40956 67.94744 36838 ft 576 kts 133°
2026-04-07 12:32 32.35887 68.02122 36837 ft 577 kts 133°
2026-04-07 12:33 32.30791 68.09450 36843 ft 577 kts 133°
2026-04-07 12:33 32.25674 68.16754 36812 ft 577 kts 133°
2026-04-07 12:34 32.20573 68.24015 36842 ft 578 kts 133°
2026-04-07 12:34 32.15440 68.31315 36846 ft 577 kts 133°
2026-04-07 12:35 32.10311 68.38596 36836 ft 577 kts 134°
2026-04-07 12:35 32.05180 68.45867 36835 ft 577 kts 134°
2026-04-07 12:36 32.00041 68.53134 36845 ft 577 kts 134°
2026-04-07 12:36 31.94910 68.60376 36817 ft 574 kts 134°
2026-04-07 12:37 31.89801 68.67575 36799 ft 573 kts 134°
2026-04-07 12:37 31.84686 68.74764 36782 ft 573 kts 134°
2026-04-07 12:38 31.79557 68.81960 36807 ft 576 kts 134°
2026-04-07 12:38 31.74406 68.89175 36799 ft 576 kts 134°
2026-04-07 12:39 31.69267 68.96361 36796 ft 574 kts 134°
2026-04-07 12:39 31.64154 69.03556 36728 ft 574 kts 133°
2026-04-07 12:40 31.59186 69.10953 36780 ft 580 kts 131°
2026-04-07 12:40 31.54219 69.18434 36765 ft 581 kts 131°
2026-04-07 12:41 31.49235 69.25868 36776 ft 577 kts 132°
2026-04-07 12:41 31.44300 69.33166 36759 ft 574 kts 132°
2026-04-07 12:42 31.39318 69.40501 36769 ft 578 kts 132°
2026-04-07 12:42 31.33924 69.47435 36771 ft 571 kts 144°
2026-04-07 12:43 31.27866 69.53425 36762 ft 569 kts 146°
2026-04-07 12:43 31.21721 69.59220 36710 ft 566 kts 147°
2026-04-07 12:44 31.15560 69.64994 36753 ft 570 kts 147°
2026-04-07 12:44 31.09377 69.70813 36753 ft 572 kts 147°
2026-04-07 12:45 31.03192 69.76647 36753 ft 572 kts 147°
2026-04-07 12:45 30.97003 69.82478 36727 ft 572 kts 147°
2026-04-07 12:46 30.90783 69.88321 36749 ft 576 kts 147°
2026-04-07 12:46 30.84597 69.94130 36744 ft 573 kts 147°
2026-04-07 12:47 30.78351 69.99982 36741 ft 572 kts 147°
2026-04-07 12:47 30.73196 70.04803 36739 ft 574 kts 148°
2026-04-07 12:48 30.66951 70.10630 36741 ft 576 kts 148°
2026-04-07 12:48 30.60704 70.16453 36749 ft 576 kts 148°
2026-04-07 12:49 30.54451 70.22272 36765 ft 576 kts 148°
2026-04-07 12:49 30.48201 70.28078 36750 ft 577 kts 148°
2026-04-07 12:50 30.41940 70.33878 36746 ft 581 kts 148°
2026-04-07 12:50 30.35633 70.39721 36745 ft 580 kts 148°
2026-04-07 12:51 30.29330 70.45551 36702 ft 579 kts 148°
2026-04-07 12:51 30.23011 70.51377 36741 ft 585 kts 149°
2026-04-07 12:52 30.16659 70.57295 36735 ft 585 kts 147°
2026-04-07 12:52 30.10407 70.63249 36734 ft 581 kts 147°
2026-04-07 12:53 30.04158 70.69185 36713 ft 581 kts 148°
2026-04-07 12:53 29.97869 70.75116 36726 ft 587 kts 148°
2026-04-07 12:54 29.91548 70.81061 36720 ft 586 kts 148°
2026-04-07 12:54 29.85222 70.87004 36719 ft 586 kts 148°
2026-04-07 12:55 29.78909 70.92926 36722 ft 584 kts 148°
2026-04-07 12:55 29.72606 70.98829 36711 ft 583 kts 148°
2026-04-07 12:56 29.66310 71.04729 36725 ft 584 kts 147°
2026-04-07 12:56 29.60187 71.10904 36719 ft 587 kts 144°
2026-04-07 12:57 29.54141 71.17212 36716 ft 589 kts 144°
2026-04-07 12:57 29.48054 71.23491 36719 ft 589 kts 145°
2026-04-07 12:58 29.41930 71.29733 36723 ft 589 kts 145°
2026-04-07 12:58 29.35792 71.35957 36717 ft 589 kts 145°
2026-04-07 12:59 29.29647 71.42179 36721 ft 590 kts 146°
2026-04-07 12:59 29.23500 71.48436 36722 ft 592 kts 145°
2026-04-07 13:00 29.17369 71.54714 36723 ft 592 kts 145°
2026-04-07 13:00 29.11266 71.60955 36724 ft 590 kts 145°
2026-04-07 13:01 29.05096 71.67241 36728 ft 591 kts 145°
2026-04-07 13:01 28.98955 71.73481 36730 ft 591 kts 145°
2026-04-07 13:02 28.92851 71.79675 36730 ft 591 kts 145°
2026-04-07 13:02 28.86712 71.85895 36732 ft 591 kts 145°
2026-04-07 13:03 28.80526 71.92151 36751 ft 590 kts 146°
2026-04-07 13:03 28.74374 71.98364 36735 ft 590 kts 146°
2026-04-07 13:04 28.68226 72.04562 36735 ft 590 kts 146°
2026-04-07 13:04 28.62075 72.10753 36732 ft 590 kts 146°
2026-04-07 13:05 28.55923 72.16935 36739 ft 590 kts 146°
2026-04-07 13:05 28.50239 72.23732 36745 ft 603 kts 128°
2026-04-07 13:05 28.48213 72.27854 36748 ft 608 kts 114°
2026-04-07 13:06 28.46916 72.32422 36745 ft 609 kts 103°
2026-04-07 13:06 28.45762 72.41937 36748 ft 608 kts 92°
2026-04-07 13:07 28.45406 72.51541 36745 ft 608 kts 88°
2026-04-07 13:07 28.45334 72.61135 36777 ft 607 kts 87°
2026-04-07 13:08 28.45285 72.70727 36750 ft 607 kts 88°
2026-04-07 13:08 28.45188 72.80322 36752 ft 607 kts 88°
2026-04-07 13:09 28.45060 72.89904 36754 ft 607 kts 88°
2026-04-07 13:09 28.44920 72.99514 36734 ft 607 kts 88°
2026-04-07 13:10 28.44777 73.09117 36757 ft 608 kts 88°
2026-04-07 13:10 28.44629 73.18728 36759 ft 608 kts 88°
2026-04-07 13:11 28.44474 73.28342 36760 ft 608 kts 88°
2026-04-07 13:11 28.44313 73.37950 36764 ft 608 kts 88°
2026-04-07 13:12 28.44144 73.47553 36766 ft 608 kts 88°
2026-04-07 13:12 28.43970 73.57138 36765 ft 608 kts 88°
2026-04-07 13:13 28.43788 73.66756 36781 ft 608 kts 88°
2026-04-07 13:13 28.43600 73.76343 36769 ft 606 kts 88°
2026-04-07 13:14 28.43405 73.85923 36772 ft 606 kts 88°
2026-04-07 13:14 28.43204 73.95494 36785 ft 606 kts 88°
2026-04-07 13:15 28.42996 74.05068 36788 ft 606 kts 89°
2026-04-07 13:15 28.42784 74.14642 36788 ft 606 kts 88°
2026-04-07 13:16 28.42566 74.24207 36791 ft 606 kts 89°
2026-04-07 13:16 28.42338 74.33773 36791 ft 606 kts 89°
2026-04-07 13:17 28.42103 74.43336 36800 ft 606 kts 89°
2026-04-07 13:17 28.41862 74.52901 36804 ft 606 kts 89°
2026-04-07 13:18 28.41616 74.62457 36804 ft 606 kts 89°
2026-04-07 13:18 28.41363 74.72020 36807 ft 606 kts 89°
2026-04-07 13:19 28.41103 74.81587 36807 ft 606 kts 89°
2026-04-07 13:19 28.40837 74.91158 36807 ft 606 kts 89°
2026-04-07 13:20 28.40564 75.00701 36789 ft 606 kts 89°
2026-04-07 13:20 28.40283 75.10292 36816 ft 607 kts 89°
2026-04-07 13:21 28.39996 75.19873 36808 ft 608 kts 89°
2026-04-07 13:21 28.39701 75.29479 36802 ft 607 kts 89°
2026-04-07 13:22 28.39402 75.39004 36798 ft 607 kts 89°
2026-04-07 13:22 28.39094 75.48589 36800 ft 606 kts 89°
2026-04-07 13:23 28.38781 75.58147 36796 ft 605 kts 89°
2026-04-07 13:23 28.38461 75.67695 36799 ft 605 kts 89°
2026-04-07 13:24 28.38135 75.77252 36799 ft 605 kts 89°
2026-04-07 13:24 28.37802 75.86783 36799 ft 603 kts 89°
2026-04-07 13:25 28.37464 75.96298 36796 ft 602 kts 90°
2026-04-07 13:25 28.37119 76.05804 36796 ft 602 kts 90°
2026-04-07 13:26 28.36769 76.15308 36799 ft 603 kts 90°
2026-04-07 13:26 28.36411 76.24786 36797 ft 599 kts 90°
2026-04-07 13:27 28.36048 76.34233 36798 ft 598 kts 90°
2026-04-07 13:27 28.35680 76.43671 36802 ft 598 kts 90°
2026-04-07 13:28 28.35306 76.53108 36811 ft 598 kts 90°
2026-04-07 13:28 28.34907 76.62525 36794 ft 597 kts 92°
2026-04-07 13:28 28.34257 76.67185 36804 ft 597 kts 104°
2026-04-07 13:29 28.33040 76.71691 36801 ft 596 kts 110°
2026-04-07 13:29 28.30702 76.79041 36743 ft 597 kts 112°
2026-04-07 13:30 28.27679 76.87855 36830 ft 602 kts 112°
2026-04-07 13:30 28.24630 76.96693 36806 ft 600 kts 112°
2026-04-07 13:31 28.21622 77.05514 36806 ft 600 kts 112°
2026-04-07 13:31 28.18624 77.14347 36807 ft 600 kts 112°
2026-04-07 13:32 28.15623 77.23172 36832 ft 600 kts 112°
2026-04-07 13:32 28.12622 77.31970 36810 ft 597 kts 112°
2026-04-07 13:33 28.09622 77.40737 36808 ft 596 kts 112°
2026-04-07 13:33 28.05102 77.53902 36808 ft 601 kts 112°
2026-04-07 13:34 28.02063 77.62729 36808 ft 602 kts 112°
2026-04-07 13:34 27.99025 77.71532 36807 ft 599 kts 112°
2026-04-07 13:35 27.95992 77.80304 36805 ft 599 kts 112°
2026-04-07 13:35 27.92951 77.89071 36808 ft 599 kts 112°
2026-04-07 13:36 27.89907 77.97828 36812 ft 599 kts 112°
2026-04-07 13:36 27.86868 78.06550 36806 ft 595 kts 112°
2026-04-07 13:37 27.83832 78.15247 36808 ft 595 kts 112°
2026-04-07 13:37 27.80761 78.23865 36807 ft 594 kts 114°
2026-04-07 13:38 27.77517 78.32437 36811 ft 594 kts 115°
2026-04-07 13:38 27.74242 78.41020 36811 ft 594 kts 115°
2026-04-07 13:39 27.70995 78.49594 36807 ft 594 kts 114°
2026-04-07 13:39 27.67754 78.58182 36807 ft 594 kts 114°
2026-04-07 13:40 27.64518 78.66748 36807 ft 594 kts 114°
2026-04-07 13:40 27.61267 78.75327 36783 ft 592 kts 114°
2026-04-07 13:41 27.58021 78.83869 36815 ft 594 kts 114°
2026-04-07 13:41 27.54763 78.92422 36812 ft 594 kts 115°
2026-04-07 13:42 27.51498 79.00977 36816 ft 594 kts 115°
2026-04-07 13:42 27.48231 79.09518 36817 ft 594 kts 115°
2026-04-07 13:43 27.44962 79.18047 36813 ft 592 kts 115°
2026-04-07 13:43 27.41692 79.26559 36818 ft 592 kts 115°
2026-04-07 13:44 27.38441 79.35006 36816 ft 592 kts 115°
2026-04-07 13:44 27.35161 79.43505 36820 ft 594 kts 115°
2026-04-07 13:45 27.31858 79.52023 36809 ft 593 kts 115°
2026-04-07 13:45 27.28474 79.60469 36827 ft 592 kts 116°
2026-04-07 13:46 27.25061 79.68891 36824 ft 592 kts 116°
2026-04-07 13:46 27.21657 79.77315 36814 ft 592 kts 116°
2026-04-07 13:47 27.18261 79.85734 36815 ft 591 kts 116°
2026-04-07 13:47 27.14877 79.94115 36815 ft 589 kts 116°
2026-04-07 13:48 27.11482 80.02502 36773 ft 589 kts 116°
2026-04-07 13:48 27.08075 80.10894 36819 ft 592 kts 116°
2026-04-07 13:49 27.04654 80.19308 36822 ft 593 kts 116°
2026-04-07 13:49 27.01236 80.27698 36821 ft 592 kts 116°
2026-04-07 13:50 26.97806 80.36097 36817 ft 591 kts 116°
2026-04-07 13:50 26.94404 80.44413 36819 ft 591 kts 116°
2026-04-07 13:51 26.90967 80.52796 36819 ft 591 kts 116°
2026-04-07 13:51 26.87527 80.61169 36816 ft 590 kts 116°
2026-04-07 13:52 26.84089 80.69521 36823 ft 592 kts 116°
2026-04-07 13:52 26.80631 80.77902 36829 ft 594 kts 116°
2026-04-07 13:53 26.77161 80.86300 36829 ft 594 kts 116°
2026-04-07 13:53 26.74386 80.95016 36831 ft 595 kts 107°
2026-04-07 13:54 26.72022 81.03877 36826 ft 594 kts 106°
2026-04-07 13:54 26.69742 81.12692 36818 ft 594 kts 106°
2026-04-07 13:55 26.67428 81.21568 36810 ft 594 kts 106°
2026-04-07 13:55 26.65094 81.30421 36823 ft 594 kts 106°
2026-04-07 13:56 26.62749 81.39261 36805 ft 593 kts 106°
2026-04-07 13:56 26.60402 81.48088 36789 ft 593 kts 106°
2026-04-07 13:57 26.58044 81.56942 36797 ft 597 kts 106°
2026-04-07 13:57 26.55676 81.65807 36786 ft 597 kts 106°
2026-04-07 13:58 26.53293 81.74704 36787 ft 595 kts 106°
2026-04-07 13:58 26.50920 81.83541 36785 ft 594 kts 106°
2026-04-07 13:59 26.48540 81.92380 36788 ft 594 kts 106°
2026-04-07 13:59 26.46157 82.01203 36788 ft 594 kts 106°
2026-04-07 14:00 26.43771 82.10016 36790 ft 594 kts 107°
2026-04-07 14:00 26.41376 82.18841 36791 ft 594 kts 107°
2026-04-07 14:01 26.38976 82.27657 36783 ft 594 kts 107°
2026-04-07 14:01 26.36572 82.36463 36782 ft 594 kts 107°
2026-04-07 14:02 26.34159 82.45280 36782 ft 594 kts 106°
2026-04-07 14:02 26.31745 82.54079 36782 ft 594 kts 106°
2026-04-07 14:03 26.29324 82.62879 36782 ft 594 kts 106°
2026-04-07 14:03 26.26903 82.71657 36782 ft 594 kts 106°
2026-04-07 14:04 26.24484 82.80402 36782 ft 593 kts 106°
2026-04-07 14:04 26.22057 82.89156 36779 ft 590 kts 106°
2026-04-07 14:05 26.19630 82.97887 36782 ft 590 kts 106°
2026-04-07 14:05 26.17198 83.06614 36780 ft 590 kts 106°
2026-04-07 14:06 26.14763 83.15329 36777 ft 590 kts 106°
2026-04-07 14:06 26.12318 83.24056 36776 ft 589 kts 106°
2026-04-07 14:07 26.09871 83.32766 36766 ft 589 kts 106°
2026-04-07 14:07 26.07421 83.41470 36777 ft 590 kts 106°
2026-04-07 14:08 26.04966 83.50168 36774 ft 590 kts 106°
2026-04-07 14:08 26.02500 83.58880 36773 ft 589 kts 106°
2026-04-07 14:09 26.00051 83.67544 36777 ft 586 kts 106°
2026-04-07 14:09 25.97618 83.76123 36771 ft 586 kts 106°
2026-04-07 14:10 25.95165 83.84750 36773 ft 586 kts 106°
2026-04-07 14:10 25.92704 83.93387 36777 ft 586 kts 106°
2026-04-07 14:11 25.90249 84.01978 36771 ft 582 kts 106°
2026-04-07 14:11 25.87797 84.10541 36768 ft 582 kts 106°
2026-04-07 14:12 25.85340 84.19100 36771 ft 582 kts 106°
2026-04-07 14:12 25.82877 84.27658 36749 ft 582 kts 107°
2026-04-07 14:13 25.80403 84.36237 36769 ft 583 kts 107°
2026-04-07 14:13 25.77924 84.44804 36769 ft 583 kts 107°
2026-04-07 14:14 25.75445 84.53355 36769 ft 582 kts 107°
2026-04-07 14:14 25.72960 84.61904 36769 ft 582 kts 107°
2026-04-07 14:15 25.70471 84.70449 36784 ft 582 kts 108°
2026-04-07 14:15 25.67985 84.78961 36774 ft 579 kts 108°
2026-04-07 14:16 25.65919 84.86022 36778 ft 579 kts 108°
2026-04-07 14:16 25.63433 84.94498 36776 ft 578 kts 108°
2026-04-07 14:17 25.60941 85.02973 36774 ft 579 kts 108°
2026-04-07 14:17 25.58737 85.11529 36771 ft 577 kts 101°
2026-04-07 14:18 25.57129 85.20219 36773 ft 576 kts 100°
2026-04-07 14:18 25.55621 85.28932 36764 ft 577 kts 99°
2026-04-07 14:19 25.54107 85.37700 36778 ft 581 kts 100°
2026-04-07 14:19 25.52567 85.46490 36782 ft 581 kts 100°
2026-04-07 14:20 25.51019 85.55246 36776 ft 580 kts 100°
2026-04-07 14:20 25.49465 85.63999 36784 ft 580 kts 100°
2026-04-07 14:21 25.47906 85.72756 36782 ft 580 kts 100°
2026-04-07 14:21 25.46342 85.81507 36782 ft 580 kts 100°
2026-04-07 14:22 25.44774 85.90254 36794 ft 580 kts 100°
2026-04-07 14:22 25.43200 85.99003 36790 ft 580 kts 101°
2026-04-07 14:23 25.41623 86.07738 36790 ft 580 kts 101°
2026-04-07 14:23 25.40038 86.16488 36792 ft 580 kts 101°
2026-04-07 14:24 25.38449 86.25223 36797 ft 579 kts 101°
2026-04-07 14:24 25.36857 86.33949 36801 ft 579 kts 101°
2026-04-07 14:25 25.35146 86.42635 36799 ft 579 kts 108°
2026-04-07 14:25 25.32169 86.50872 36805 ft 577 kts 115°
2026-04-07 14:26 25.28846 86.58947 36805 ft 577 kts 117°
2026-04-07 14:26 25.25464 86.66979 36802 ft 576 kts 117°
2026-04-07 14:27 25.22100 86.75006 36813 ft 576 kts 116°
2026-04-07 14:27 25.18751 86.83031 36810 ft 575 kts 116°
2026-04-07 14:28 25.15404 86.91055 36808 ft 575 kts 116°
2026-04-07 14:28 25.12053 86.99074 36811 ft 575 kts 117°
2026-04-07 14:29 25.08704 87.07067 36808 ft 573 kts 117°
2026-04-07 14:29 25.05354 87.15048 36815 ft 573 kts 117°
2026-04-07 14:30 25.02026 87.22960 36815 ft 573 kts 117°
2026-04-07 14:30 24.98670 87.30928 36797 ft 574 kts 117°
2026-04-07 14:31 24.95296 87.38921 36815 ft 575 kts 117°
2026-04-07 14:31 24.91924 87.46898 36811 ft 574 kts 117°
2026-04-07 14:32 24.88547 87.54870 36821 ft 574 kts 117°
2026-04-07 14:32 24.85171 87.62826 36819 ft 574 kts 117°
2026-04-07 14:33 24.81788 87.70786 36818 ft 574 kts 117°
2026-04-07 14:33 24.78401 87.78740 36810 ft 573 kts 117°
2026-04-07 14:34 24.75067 87.86693 36812 ft 573 kts 117°
2026-04-07 14:34 24.71805 87.94687 36806 ft 573 kts 116°
2026-04-07 14:35 24.68539 88.02678 36774 ft 573 kts 117°
2026-04-07 14:35 24.65233 88.10681 36814 ft 577 kts 117°
2026-04-07 14:36 24.61875 88.18703 36808 ft 578 kts 117°
2026-04-07 14:36 24.58513 88.26724 36807 ft 578 kts 117°
2026-04-07 14:37 24.55154 88.34741 36809 ft 578 kts 117°
2026-04-07 14:37 24.51792 88.42756 36809 ft 578 kts 117°
2026-04-07 14:38 24.48450 88.50711 36813 ft 577 kts 117°
2026-04-07 14:38 24.45100 88.58700 36813 ft 577 kts 116°
2026-04-07 14:39 24.42753 88.67194 36814 ft 579 kts 104°
2026-04-07 14:39 24.41837 88.71500 36816 ft 580 kts 103°
2026-04-07 14:40 24.40135 88.80075 36824 ft 580 kts 103°
2026-04-07 14:40 24.38438 88.88733 36826 ft 580 kts 103°
2026-04-07 14:41 24.36711 88.97384 36826 ft 582 kts 103°
2026-04-07 14:41 24.34959 89.06053 36823 ft 583 kts 103°
2026-04-07 14:42 24.33198 89.14722 36826 ft 583 kts 103°
2026-04-07 14:42 24.31430 89.23405 36826 ft 583 kts 103°
2026-04-07 14:43 24.29663 89.32068 36831 ft 580 kts 104°
2026-04-07 14:43 24.27897 89.40694 36839 ft 579 kts 104°
2026-04-07 14:44 24.26128 89.49310 36837 ft 579 kts 104°
2026-04-07 14:44 24.24355 89.57922 36837 ft 579 kts 104°
2026-04-07 14:45 24.22575 89.66537 36837 ft 579 kts 104°
2026-04-07 14:45 24.20795 89.75133 36840 ft 579 kts 104°
2026-04-07 14:46 24.19015 89.83696 36840 ft 579 kts 104°
2026-04-07 14:46 24.17224 89.92292 36837 ft 579 kts 104°
2026-04-07 14:47 24.15426 90.00895 36841 ft 579 kts 104°
2026-04-07 14:47 24.13623 90.09495 36837 ft 578 kts 104°
2026-04-07 14:48 24.11820 90.18070 36837 ft 578 kts 104°
2026-04-07 14:48 24.10012 90.26643 36837 ft 578 kts 104°
2026-04-07 14:49 24.08199 90.35216 36840 ft 578 kts 104°
2026-04-07 14:49 24.06394 90.43731 36821 ft 578 kts 105°
2026-04-07 14:50 24.04561 90.52308 36845 ft 579 kts 105°
2026-04-07 14:50 24.02717 90.60884 36847 ft 579 kts 105°
2026-04-07 14:51 24.00870 90.69458 36845 ft 579 kts 105°
2026-04-07 14:51 23.99020 90.78033 36837 ft 579 kts 105°
2026-04-07 14:52 23.97167 90.86600 36842 ft 578 kts 105°
2026-04-07 14:52 23.95310 90.95155 36846 ft 578 kts 105°
2026-04-07 14:53 23.93449 91.03708 36846 ft 578 kts 105°
2026-04-07 14:53 23.91583 91.12259 36844 ft 578 kts 105°
2026-04-07 14:54 23.89715 91.20797 36827 ft 577 kts 106°
2026-04-07 14:54 23.87883 91.29341 36825 ft 577 kts 104°
2026-04-07 14:55 23.86191 91.37912 36831 ft 577 kts 104°
2026-04-07 14:55 23.84509 91.46495 36842 ft 577 kts 104°
2026-04-07 14:56 23.82804 91.55060 36856 ft 577 kts 105°
2026-04-07 14:56 23.81083 91.63607 36858 ft 575 kts 105°
2026-04-07 14:57 23.79360 91.72121 36868 ft 574 kts 105°
2026-04-07 14:57 23.77633 91.80636 36866 ft 574 kts 105°
2026-04-07 14:58 23.75902 91.89148 36879 ft 574 kts 105°
2026-04-07 14:58 23.74168 91.97655 36876 ft 573 kts 105°
2026-04-07 14:59 23.72432 92.06146 36880 ft 574 kts 106°
2026-04-07 14:59 23.70688 92.14647 36904 ft 575 kts 106°
2026-04-07 15:00 23.68938 92.23152 36893 ft 575 kts 106°
2026-04-07 15:00 23.67478 92.30232 36903 ft 575 kts 106°
2026-04-07 15:01 23.65722 92.38728 36919 ft 573 kts 107°
2026-04-07 15:01 23.63966 92.47200 36926 ft 573 kts 107°
2026-04-07 15:02 23.62204 92.55669 36921 ft 573 kts 107°
2026-04-07 15:02 23.60434 92.64159 36944 ft 575 kts 106°
2026-04-07 15:03 23.58817 92.72683 36939 ft 574 kts 105°
2026-04-07 15:03 23.57285 92.81206 36967 ft 572 kts 105°
2026-04-07 15:04 23.55729 92.89728 36967 ft 573 kts 105°
2026-04-07 15:04 23.54147 92.98239 36966 ft 573 kts 105°
2026-04-07 15:05 23.52551 93.06755 36978 ft 573 kts 106°
2026-04-07 15:05 23.50957 93.15250 36986 ft 572 kts 106°
2026-04-07 15:06 23.49358 93.23730 37002 ft 571 kts 106°
2026-04-07 15:06 23.47758 93.32206 36996 ft 571 kts 106°
2026-04-07 15:07 23.46152 93.40682 37009 ft 572 kts 106°
2026-04-07 15:07 23.44824 93.49246 37008 ft 576 kts 101°
2026-04-07 15:08 23.43930 93.57918 37005 ft 577 kts 100°
2026-04-07 15:08 23.43113 93.66542 37001 ft 577 kts 99°
2026-04-07 15:09 23.42280 93.75296 37004 ft 577 kts 100°
2026-04-07 15:09 23.41437 93.83976 36988 ft 577 kts 101°
2026-04-07 15:10 23.40584 93.92601 36979 ft 577 kts 100°
2026-04-07 15:10 23.39726 94.01285 36954 ft 577 kts 100°
2026-04-07 15:11 23.38865 94.09965 36956 ft 578 kts 100°
2026-04-07 15:11 23.37997 94.18668 36923 ft 578 kts 101°
2026-04-07 15:12 23.37124 94.27360 36898 ft 579 kts 101°
2026-04-07 15:12 23.36240 94.36085 36904 ft 581 kts 101°
2026-04-07 15:13 23.35351 94.44833 36907 ft 581 kts 101°
2026-04-07 15:13 23.34459 94.53576 36910 ft 581 kts 101°
2026-04-07 15:14 23.33561 94.62319 36903 ft 582 kts 101°
2026-04-07 15:14 23.32656 94.71074 36906 ft 582 kts 101°
2026-04-07 15:15 23.31746 94.79829 36909 ft 582 kts 101°
2026-04-07 15:15 23.30832 94.88581 36911 ft 582 kts 101°
2026-04-07 15:16 23.29912 94.97337 36901 ft 582 kts 101°
2026-04-07 15:16 23.28988 95.06083 36903 ft 582 kts 101°
2026-04-07 15:17 23.28058 95.14834 36903 ft 582 kts 101°
2026-04-07 15:17 23.27124 95.23589 36892 ft 582 kts 101°
2026-04-07 15:18 23.26186 95.32329 36892 ft 582 kts 101°
2026-04-07 15:18 23.25241 95.41082 36888 ft 582 kts 101°
2026-04-07 15:19 23.24294 95.49816 36891 ft 582 kts 101°
2026-04-07 15:19 23.23342 95.58547 36897 ft 582 kts 101°
2026-04-07 15:20 23.22385 95.67274 36889 ft 582 kts 101°
2026-04-07 15:20 23.21423 95.76005 36885 ft 581 kts 101°
2026-04-07 15:21 23.20462 95.84675 36891 ft 582 kts 101°
2026-04-07 15:21 23.19490 95.93411 36891 ft 582 kts 101°
2026-04-07 15:22 23.18512 96.02154 36896 ft 582 kts 101°
2026-04-07 15:22 23.17530 96.10889 36902 ft 582 kts 101°
2026-04-07 15:23 23.16544 96.19616 36904 ft 582 kts 101°
2026-04-07 15:23 23.15553 96.28344 36919 ft 582 kts 102°
2026-04-07 15:24 23.14557 96.37064 36915 ft 582 kts 102°
2026-04-07 15:24 23.13556 96.45789 36925 ft 582 kts 102°
2026-04-07 15:25 23.12549 96.54517 36936 ft 582 kts 101°
2026-04-07 15:25 23.11540 96.63231 36934 ft 582 kts 101°
2026-04-07 15:26 23.10526 96.71939 36951 ft 582 kts 102°
2026-04-07 15:26 23.09506 96.80657 36949 ft 582 kts 102°
2026-04-07 15:27 23.08482 96.89375 36969 ft 581 kts 101°
2026-04-07 15:27 23.07454 96.98073 36969 ft 581 kts 102°
2026-04-07 15:28 23.06421 97.06777 36976 ft 581 kts 102°
2026-04-07 15:28 23.05382 97.15477 36965 ft 581 kts 102°
2026-04-07 15:29 23.04340 97.24183 36972 ft 583 kts 102°
2026-04-07 15:29 23.03294 97.32889 36948 ft 580 kts 102°
2026-04-07 15:30 23.02242 97.41582 36948 ft 580 kts 102°
2026-04-07 15:30 23.01183 97.50277 36957 ft 581 kts 102°
2026-04-07 15:31 23.00122 97.58967 36941 ft 580 kts 102°
2026-04-07 15:31 22.99061 97.67629 36940 ft 578 kts 102°
2026-04-07 15:32 22.98965 97.76379 36933 ft 585 kts 82°
2026-04-07 15:32 23.01218 97.84866 36933 ft 587 kts 70°
2026-04-07 15:33 23.04067 97.93182 36944 ft 587 kts 68°
2026-04-07 15:33 23.06991 98.01460 36954 ft 587 kts 69°
2026-04-07 15:34 23.09861 98.09748 36959 ft 586 kts 69°
2026-04-07 15:34 23.12690 98.18042 36962 ft 585 kts 69°
2026-04-07 15:35 23.15504 98.26339 36969 ft 584 kts 69°
2026-04-07 15:35 23.18312 98.34629 36950 ft 585 kts 69°
2026-04-07 15:36 23.21121 98.42927 36987 ft 585 kts 70°
2026-04-07 15:36 23.23931 98.51241 36956 ft 587 kts 70°
2026-04-07 15:37 23.26742 98.59577 36974 ft 588 kts 70°
2026-04-07 15:37 23.29551 98.67924 36968 ft 587 kts 70°
2026-04-07 15:38 23.32349 98.76254 36953 ft 586 kts 70°
2026-04-07 15:38 23.35132 98.84574 36946 ft 585 kts 70°
2026-04-07 15:39 23.37918 98.92895 36950 ft 585 kts 70°
2026-04-07 15:39 23.40596 99.01270 36956 ft 586 kts 71°
2026-04-07 15:40 23.43181 99.09682 36954 ft 588 kts 72°
2026-04-07 15:40 23.45776 99.18093 36963 ft 583 kts 71°
2026-04-07 15:41 23.48376 99.26459 36980 ft 583 kts 71°
2026-04-07 15:41 23.50967 99.34790 36984 ft 586 kts 71°
2026-04-07 15:42 23.54059 99.42994 36970 ft 585 kts 61°
2026-04-07 15:42 23.59319 99.53368 36985 ft 584 kts 58°
2026-04-07 15:43 23.64020 99.62284 36967 ft 583 kts 58°
2026-04-07 15:43 23.67388 99.68701 36968 ft 582 kts 59°
2026-04-07 15:44 23.71391 99.76386 36985 ft 583 kts 59°
2026-04-07 15:44 23.75389 99.84090 36970 ft 583 kts 59°
2026-04-07 15:45 23.79393 99.91812 36982 ft 586 kts 59°
2026-04-07 15:45 23.83405 99.99562 36980 ft 587 kts 59°
2026-04-07 15:46 23.87415 100.07329 36984 ft 587 kts 59°
2026-04-07 15:46 23.91420 100.15094 36975 ft 586 kts 59°
2026-04-07 15:47 23.95419 100.22858 36995 ft 585 kts 59°
2026-04-07 15:47 23.99402 100.30602 36997 ft 583 kts 59°
2026-04-07 15:48 24.03369 100.38329 37042 ft 583 kts 59°
2026-04-07 15:48 24.07343 100.46078 36993 ft 583 kts 59°
2026-04-07 15:49 24.11311 100.53827 36993 ft 584 kts 59°
2026-04-07 15:49 24.15263 100.61609 36995 ft 584 kts 60°
2026-04-07 15:50 24.19158 100.69400 37019 ft 583 kts 60°
2026-04-07 15:50 24.23051 100.77206 36999 ft 584 kts 59°
2026-04-07 15:51 24.26927 100.84969 37013 ft 583 kts 60°
2026-04-07 15:51 24.30844 100.92818 37049 ft 583 kts 60°
2026-04-07 15:52 24.34738 101.00630 37018 ft 585 kts 60°
2026-04-07 15:52 24.38635 101.08463 37019 ft 585 kts 60°
2026-04-07 15:53 24.42529 101.16306 37016 ft 586 kts 60°
2026-04-07 15:53 24.46397 101.24107 37006 ft 585 kts 59°
2026-04-07 15:54 24.50285 101.31962 37006 ft 585 kts 60°
2026-04-07 15:54 24.54155 101.39799 37021 ft 583 kts 60°
2026-04-07 15:55 24.58014 101.47622 37043 ft 583 kts 60°
2026-04-07 15:55 24.61877 101.55469 37032 ft 585 kts 60°
2026-04-07 15:56 24.65732 101.63358 37035 ft 586 kts 60°
2026-04-07 15:56 24.69549 101.71276 37026 ft 586 kts 61°
2026-04-07 15:57 24.73348 101.79178 37098 ft 583 kts 61°
2026-04-07 15:57 24.75242 101.83111 37287 ft 583 kts 60°
2026-04-07 15:57 24.77140 101.87055 37567 ft 581 kts 60°
2026-04-07 15:58 24.79029 101.90983 37909 ft 579 kts 60°
2026-04-07 15:58 24.80913 101.94902 38177 ft 578 kts 60°
2026-04-07 15:58 24.82789 101.98807 38374 ft 576 kts 60°
2026-04-07 15:58 24.84652 102.02690 38635 ft 574 kts 60°
2026-04-07 15:59 24.86516 102.06581 38838 ft 573 kts 60°
2026-04-07 15:59 24.88371 102.10456 39001 ft 572 kts 60°
2026-04-07 15:59 24.92071 102.18192 39065 ft 570 kts 60°
2026-04-07 16:00 24.95762 102.25917 39082 ft 569 kts 60°
2026-04-07 16:00 24.99446 102.33638 39097 ft 569 kts 60°
2026-04-07 16:01 25.03118 102.41376 39085 ft 569 kts 62°
2026-04-07 16:01 25.04612 102.45418 39098 ft 569 kts 73°
2026-04-07 16:01 25.05475 102.49653 39101 ft 565 kts 85°
2026-04-07 16:02 25.05614 102.53963 39100 ft 560 kts 97°
2026-04-07 16:02 25.04917 102.58143 39112 ft 550 kts 113°
2026-04-07 16:02 25.03384 102.61943 39116 ft 536 kts 128°
2026-04-07 16:02 25.01257 102.65275 39125 ft 531 kts 133°
2026-04-07 16:03 24.97107 102.72090 39134 ft 538 kts 129°
2026-04-07 16:03 24.93130 102.79084 39121 ft 538 kts 128°
2026-04-07 16:04 24.89167 102.86088 39129 ft 539 kts 128°
2026-04-07 16:04 24.85260 102.93141 39115 ft 543 kts 123°
2026-04-07 16:05 24.82087 103.00678 39108 ft 547 kts 118°
2026-04-07 16:05 24.79172 103.08437 39062 ft 549 kts 117°
2026-04-07 16:06 24.76288 103.16215 39055 ft 549 kts 118°
2026-04-07 16:06 24.73375 103.23968 39044 ft 548 kts 118°
2026-04-07 16:07 24.70441 103.31708 39043 ft 548 kts 118°
2026-04-07 16:07 24.67499 103.39440 39037 ft 548 kts 118°
2026-04-07 16:08 24.64555 103.47167 39026 ft 548 kts 118°
2026-04-07 16:08 24.61609 103.54890 39013 ft 546 kts 118°
2026-04-07 16:09 24.58674 103.62570 39016 ft 544 kts 118°
2026-04-07 16:09 24.55738 103.70234 39000 ft 545 kts 118°
2026-04-07 16:10 24.53372 103.78126 39000 ft 551 kts 109°
2026-04-07 16:10 24.51573 103.86313 38975 ft 553 kts 107°
2026-04-07 16:11 24.50242 103.94659 38955 ft 555 kts 103°
2026-04-07 16:11 24.49189 104.02215 38956 ft 556 kts 102°
2026-04-07 16:12 24.48044 104.10616 38927 ft 557 kts 102°
2026-04-07 16:12 24.46884 104.19033 38931 ft 556 kts 103°
2026-04-07 16:13 24.45710 104.27414 38899 ft 555 kts 102°
2026-04-07 16:13 24.44532 104.35775 38901 ft 554 kts 102°
2026-04-07 16:14 24.43348 104.44138 38877 ft 554 kts 102°
2026-04-07 16:14 24.42164 104.52467 38852 ft 555 kts 102°
2026-04-07 16:15 24.40967 104.60855 38856 ft 555 kts 102°
2026-04-07 16:15 24.39772 104.69196 38838 ft 553 kts 102°
2026-04-07 16:16 24.38572 104.77548 38830 ft 554 kts 102°
2026-04-07 16:16 24.37367 104.85907 38834 ft 555 kts 102°
2026-04-07 16:17 24.36158 104.94256 38810 ft 554 kts 102°
2026-04-07 16:17 24.34941 105.02610 38822 ft 555 kts 102°
2026-04-07 16:18 24.33719 105.10980 38818 ft 556 kts 102°
2026-04-07 16:18 24.32493 105.19347 38821 ft 556 kts 102°
2026-04-07 16:19 24.31267 105.27714 38829 ft 556 kts 102°
2026-04-07 16:19 24.30033 105.36069 38828 ft 554 kts 102°
2026-04-07 16:20 24.28802 105.44344 38827 ft 554 kts 102°
2026-04-07 16:20 24.27557 105.52683 38822 ft 554 kts 102°
2026-04-07 16:21 24.26310 105.61006 38820 ft 553 kts 102°
2026-04-07 16:21 24.25059 105.69329 38825 ft 552 kts 102°
2026-04-07 16:22 24.23815 105.77612 38815 ft 551 kts 102°
2026-04-07 16:22 24.22566 105.85884 38812 ft 550 kts 102°
2026-04-07 16:23 24.21310 105.94154 38794 ft 550 kts 102°
2026-04-07 16:23 24.20050 106.02425 38798 ft 550 kts 102°
2026-04-07 16:24 24.18787 106.10678 38804 ft 549 kts 102°
2026-04-07 16:24 24.17519 106.18929 38804 ft 549 kts 102°
2026-04-07 16:25 24.16460 106.25782 38807 ft 549 kts 102°
2026-04-07 16:25 24.15187 106.34025 38809 ft 549 kts 102°
2026-04-07 16:26 24.13916 106.42264 38813 ft 548 kts 102°
2026-04-07 16:26 24.12636 106.50481 38820 ft 548 kts 102°
2026-04-07 16:27 24.11358 106.58692 38818 ft 548 kts 102°
2026-04-07 16:27 24.10067 106.66916 38823 ft 548 kts 102°
2026-04-07 16:28 24.08774 106.75124 38823 ft 548 kts 102°
2026-04-07 16:28 24.07474 106.83350 38818 ft 548 kts 102°
2026-04-07 16:29 24.06171 106.91567 38812 ft 548 kts 102°
2026-04-07 16:29 24.04863 106.99772 38815 ft 548 kts 102°
2026-04-07 16:30 24.03552 107.07987 38813 ft 548 kts 102°
2026-04-07 16:30 24.02243 107.16166 38814 ft 550 kts 102°
2026-04-07 16:31 24.00909 107.24466 38818 ft 551 kts 102°
2026-04-07 16:31 23.99589 107.32649 38814 ft 550 kts 102°
2026-04-07 16:32 23.98251 107.40886 38810 ft 550 kts 102°
2026-04-07 16:32 23.96911 107.49129 38825 ft 550 kts 102°
2026-04-07 16:33 23.95569 107.57367 38824 ft 551 kts 102°
2026-04-07 16:33 23.94221 107.65606 38828 ft 550 kts 102°
2026-04-07 16:34 23.92870 107.73831 38828 ft 550 kts 102°
2026-04-07 16:34 23.91516 107.82059 38825 ft 549 kts 102°
2026-04-07 16:35 23.90159 107.90264 38834 ft 549 kts 102°
2026-04-07 16:35 23.88795 107.98483 38834 ft 549 kts 102°
2026-04-07 16:36 23.87436 108.06639 38831 ft 549 kts 102°
2026-04-07 16:36 23.86068 108.14836 38832 ft 549 kts 102°
2026-04-07 16:37 23.84693 108.23044 38837 ft 549 kts 102°
2026-04-07 16:37 23.83314 108.31252 38838 ft 550 kts 102°
2026-04-07 16:38 23.81919 108.39515 38837 ft 549 kts 102°
2026-04-07 16:38 23.80541 108.47643 38839 ft 548 kts 102°
2026-04-07 16:39 23.79154 108.55815 38836 ft 546 kts 102°
2026-04-07 16:39 23.77768 108.63948 38842 ft 545 kts 102°
2026-04-07 16:40 23.76376 108.72084 38847 ft 545 kts 102°
2026-04-07 16:40 23.74981 108.80216 38844 ft 545 kts 102°
2026-04-07 16:41 23.73582 108.88348 38839 ft 546 kts 102°
2026-04-07 16:41 23.72177 108.96487 38837 ft 546 kts 102°
2026-04-07 16:42 23.70768 109.04620 38837 ft 546 kts 102°
2026-04-07 16:42 23.69355 109.12752 38842 ft 545 kts 102°
2026-04-07 16:43 23.67938 109.20886 38837 ft 546 kts 102°
2026-04-07 16:43 23.66514 109.29019 38843 ft 546 kts 102°
2026-04-07 16:44 23.65085 109.37164 38835 ft 546 kts 102°
2026-04-07 16:44 23.63653 109.45296 38835 ft 546 kts 103°
2026-04-07 16:45 23.62216 109.53430 38837 ft 546 kts 102°
2026-04-07 16:45 23.60776 109.61567 38837 ft 546 kts 102°
2026-04-07 16:46 23.59342 109.69644 38843 ft 546 kts 103°
2026-04-07 16:46 23.57892 109.77771 38839 ft 546 kts 103°
2026-04-07 16:47 23.56438 109.85899 38844 ft 546 kts 102°
2026-04-07 16:47 23.54981 109.94021 38855 ft 546 kts 103°
2026-04-07 16:48 23.53520 110.02134 38843 ft 545 kts 103°
2026-04-07 16:49 23.51324 110.14291 38848 ft 546 kts 103°
2026-04-07 16:49 23.49854 110.22401 38847 ft 546 kts 103°
2026-04-07 16:50 23.48379 110.30512 38849 ft 546 kts 103°
2026-04-07 16:50 23.46902 110.38622 38846 ft 546 kts 103°
2026-04-07 16:51 23.45420 110.46731 38847 ft 546 kts 103°
2026-04-07 16:51 23.43930 110.54836 38846 ft 546 kts 103°
2026-04-07 16:52 23.42438 110.62929 38848 ft 546 kts 103°
2026-04-07 16:52 23.40938 110.71047 38839 ft 546 kts 103°
2026-04-07 16:53 23.39453 110.79089 38854 ft 546 kts 103°
2026-04-07 16:53 23.37938 110.87235 38848 ft 546 kts 103°
2026-04-07 16:54 23.36436 110.95284 38853 ft 545 kts 103°
2026-04-07 16:54 23.34923 111.03376 38856 ft 545 kts 103°
2026-04-07 16:55 23.33406 111.11464 38857 ft 545 kts 103°
2026-04-07 16:55 23.31890 111.19549 38859 ft 546 kts 103°
2026-04-07 16:56 23.30367 111.27622 38863 ft 546 kts 103°
2026-04-07 16:56 23.28833 111.35720 38861 ft 546 kts 103°
2026-04-07 16:57 23.27298 111.43807 38867 ft 546 kts 103°
2026-04-07 16:57 23.25761 111.51889 38868 ft 546 kts 103°
2026-04-07 16:58 23.24221 111.59972 38874 ft 546 kts 103°
2026-04-07 16:58 23.22675 111.68044 38873 ft 545 kts 103°
2026-04-07 16:59 23.21125 111.76117 38873 ft 546 kts 103°
2026-04-07 16:59 23.19571 111.84188 38878 ft 546 kts 103°
2026-04-07 17:00 23.18014 111.92261 38879 ft 546 kts 103°
2026-04-07 17:00 23.16451 112.00336 38887 ft 546 kts 103°
2026-04-07 17:01 23.14883 112.08413 38895 ft 546 kts 103°
2026-04-07 17:01 23.13309 112.16490 38885 ft 546 kts 103°
2026-04-07 17:02 23.11735 112.24552 38891 ft 545 kts 103°
2026-04-07 17:02 23.10157 112.32611 38888 ft 545 kts 103°
2026-04-07 17:03 23.08577 112.40654 38891 ft 545 kts 103°
2026-04-07 17:03 23.07113 112.48728 38890 ft 545 kts 96°
2026-04-07 17:04 23.06536 112.55311 38891 ft 544 kts 94°
2026-04-07 17:04 23.05972 112.63497 38595 ft 542 kts 94°
2026-04-07 17:04 23.05712 112.67526 37881 ft 541 kts 94°
2026-04-07 17:05 23.05448 112.71588 37202 ft 540 kts 94°
2026-04-07 17:05 23.05181 112.75654 36530 ft 538 kts 95°
2026-04-07 17:05 23.04910 112.79691 35855 ft 537 kts 95°
2026-04-07 17:05 23.04635 112.83731 35226 ft 535 kts 95°
2026-04-07 17:06 23.04360 112.87750 34569 ft 533 kts 95°
2026-04-07 17:06 23.04082 112.91763 33891 ft 533 kts 96°
2026-04-07 17:06 23.03803 112.95776 33161 ft 534 kts 96°
2026-04-07 17:06 23.03521 112.99810 32465 ft 539 kts 96°
2026-04-07 17:07 23.03235 113.03879 31784 ft 542 kts 96°
2026-04-07 17:07 23.02779 113.07950 31117 ft 542 kts 103°
2026-04-07 17:07 23.01766 113.11931 30471 ft 539 kts 114°
2026-04-07 17:07 23.00155 113.15581 30059 ft 535 kts 124°
2026-04-07 17:08 22.98014 113.18799 29724 ft 530 kts 135°
2026-04-07 17:08 22.95375 113.21543 29450 ft 523 kts 146°
2026-04-07 17:08 22.92359 113.23703 29184 ft 515 kts 156°
2026-04-07 17:08 22.89102 113.25213 28939 ft 506 kts 166°
2026-04-07 17:09 22.85657 113.26070 28894 ft 499 kts 176°
2026-04-07 17:09 22.78868 113.27310 28896 ft 502 kts 169°
2026-04-07 17:10 22.72155 113.29410 28894 ft 503 kts 167°
2026-04-07 17:10 22.65453 113.31699 28897 ft 504 kts 166°
2026-04-07 17:11 22.58799 113.34027 28600 ft 497 kts 166°
2026-04-07 17:11 22.56627 113.34786 28071 ft 495 kts 166°
2026-04-07 17:11 22.52258 113.36304 27068 ft 491 kts 166°
2026-04-07 17:11 22.50101 113.37050 26642 ft 488 kts 166°
2026-04-07 17:12 22.46885 113.38160 26013 ft 483 kts 166°
2026-04-07 17:12 22.43697 113.39259 25388 ft 478 kts 166°
2026-04-07 17:12 22.40546 113.40344 24772 ft 474 kts 166°
2026-04-07 17:12 22.37422 113.41420 24162 ft 469 kts 166°
2026-04-07 17:13 22.34320 113.42488 23553 ft 465 kts 166°
2026-04-07 17:13 22.31256 113.43543 22832 ft 461 kts 166°
2026-04-07 17:13 22.28206 113.44593 22034 ft 459 kts 166°
2026-04-07 17:13 22.25176 113.45634 21301 ft 455 kts 166°
2026-04-07 17:14 22.22171 113.46668 20607 ft 452 kts 166°
2026-04-07 17:14 22.19192 113.47724 19917 ft 449 kts 164°
2026-04-07 17:14 22.16249 113.48811 19240 ft 446 kts 164°
2026-04-07 17:14 22.13322 113.49894 18581 ft 443 kts 164°
2026-04-07 17:15 22.10438 113.50957 18217 ft 432 kts 164°
2026-04-07 17:15 22.07628 113.51992 17910 ft 419 kts 164°
2026-04-07 17:15 22.04907 113.52991 17620 ft 406 kts 164°
2026-04-07 17:15 22.02276 113.53956 17349 ft 394 kts 164°
2026-04-07 17:16 21.99727 113.54890 17070 ft 383 kts 164°
2026-04-07 17:16 21.97224 113.55825 16649 ft 377 kts 162°
2026-04-07 17:16 21.94817 113.56914 16182 ft 373 kts 159°
2026-04-07 17:16 21.92462 113.58041 15728 ft 369 kts 159°
2026-04-07 17:17 21.90129 113.59147 15418 ft 365 kts 159°
2026-04-07 17:17 21.87799 113.60236 15180 ft 365 kts 159°
2026-04-07 17:17 21.85501 113.61302 14948 ft 364 kts 159°
2026-04-07 17:17 21.83181 113.62374 14727 ft 362 kts 159°
2026-04-07 17:18 21.80880 113.63435 14494 ft 360 kts 159°
2026-04-07 17:18 21.78564 113.64501 14260 ft 359 kts 159°
2026-04-07 17:18 21.76272 113.65554 14040 ft 358 kts 159°
2026-04-07 17:18 21.73985 113.66605 13931 ft 357 kts 159°
2026-04-07 17:19 21.71703 113.67653 13915 ft 356 kts 159°
2026-04-07 17:19 21.69437 113.68727 13911 ft 357 kts 156°
2026-04-07 17:19 21.67409 113.70290 13913 ft 362 kts 135°
2026-04-07 17:19 21.66079 113.72580 13914 ft 365 kts 111°
2026-04-07 17:20 21.65670 113.75254 13735 ft 362 kts 88°
2026-04-07 17:20 21.66207 113.77873 13343 ft 362 kts 70°
2026-04-07 17:20 21.67212 113.80366 12889 ft 365 kts 59°
2026-04-07 17:20 21.68819 113.82445 12442 ft 359 kts 37°
2026-04-07 17:21 21.70943 113.83800 12003 ft 354 kts 23°
2026-04-07 17:21 21.73152 113.84860 11549 ft 352 kts 21°
2026-04-07 17:21 21.75390 113.85886 11043 ft 349 kts 20°
2026-04-07 17:21 21.77615 113.86897 10535 ft 346 kts 20°
2026-04-07 17:22 21.79827 113.87899 10042 ft 343 kts 20°
2026-04-07 17:22 21.82010 113.88888 9668 ft 336 kts 21°
2026-04-07 17:22 21.84171 113.89707 9390 ft 322 kts
2026-04-07 17:22 21.86329 113.89637 9106 ft 305 kts 341°
2026-04-07 17:23 21.88269 113.88818 8739 ft 297 kts 332°
2026-04-07 17:23 21.90129 113.87874 8291 ft 295 kts 332°
2026-04-07 17:23 21.91981 113.86931 7830 ft 294 kts 332°
2026-04-07 17:23 21.93829 113.85998 7387 ft 293 kts 332°
2026-04-07 17:24 21.95674 113.85072 6938 ft 293 kts 332°
2026-04-07 17:24 21.97519 113.84150 6483 ft 293 kts 332°
2026-04-07 17:24 21.99366 113.83228 6045 ft 293 kts 332°
2026-04-07 17:24 22.01201 113.82311 5622 ft 291 kts 333°
2026-04-07 17:25 22.03035 113.81396 5187 ft 289 kts 333°
2026-04-07 17:25 22.04859 113.80488 4774 ft 287 kts 333°
2026-04-07 17:25 22.06639 113.79603 4362 ft 285 kts 333°
2026-04-07 17:25 22.08424 113.78714 4023 ft 279 kts 334°
2026-04-07 17:26 22.10152 113.77854 3831 ft 268 kts 334°
2026-04-07 17:26 22.11813 113.77031 3663 ft 257 kts 334°
2026-04-07 17:26 22.13417 113.76233 3424 ft 250 kts 334°
2026-04-07 17:26 22.14964 113.75459 3272 ft 240 kts 334°
2026-04-07 17:27 22.16452 113.74716 3125 ft 230 kts 334°
2026-04-07 17:27 22.17874 113.74005 3005 ft 220 kts 334°
2026-04-07 17:27 22.19215 113.73335 2965 ft 207 kts 334°
2026-04-07 17:27 22.20520 113.72684 2966 ft 206 kts 334°
2026-04-07 17:28 22.21823 113.72037 2963 ft 206 kts 334°
2026-04-07 17:28 22.23188 113.71672 2959 ft 197 kts
2026-04-07 17:28 22.24399 113.72160 2962 ft 182 kts 39°
2026-04-07 17:28 22.25379 113.73021 2963 ft 182 kts 45°
2026-04-07 17:29 22.26330 113.73927 2972 ft 182 kts 45°
2026-04-07 17:29 22.27269 113.74815 2789 ft 179 kts 45°
2026-04-07 17:29 22.28095 113.75794 2545 ft 173 kts 60°
2026-04-07 17:29 22.28567 113.76949 2215 ft 166 kts 79°
2026-04-07 17:30 22.28904 113.78133 1910 ft 164 kts 76°
2026-04-07 17:30 22.29272 113.79289 1642 ft 160 kts 75°
2026-04-07 17:30 22.29642 113.80427 1496 ft 162 kts 74°
2026-04-07 17:30 22.30007 113.81534 1295 ft 150 kts 76°
2026-04-07 17:31 22.30331 113.82562 1112 ft 141 kts 74°
2026-04-07 17:31 22.30654 113.83557 942 ft 141 kts 75°
2026-04-07 17:31 22.30978 113.84564 769 ft 142 kts 75°
2026-04-07 17:31 22.31295 113.85556 588 ft 137 kts 75°
2026-04-07 17:32 22.31615 113.86519 399 ft 137 kts 71°
2026-04-07 17:32 22.31948 113.87489 218 ft 138 kts 74°
2026-04-07 17:32 22.32251 113.88475 46 ft 138 kts 76°
2026-04-07 17:32 22.32520 113.89340 38 ft 90 kts 71°
2026-04-07 17:33 22.32688 113.89868 38 ft 67 kts 72°
2026-04-07 17:33 22.32816 113.90289 38 ft 46 kts 79°
2026-04-07 17:33 22.32800 113.90554 38 ft 25 kts 102°
2026-04-07 17:33 22.32788 113.90738 38 ft 25 kts 76°
2026-04-07 17:34 22.32845 113.90911 38 ft 25 kts 72°
2026-04-07 17:34 22.32899 113.91086 38 ft 25 kts 71°
2026-04-07 17:34 22.32955 113.91263 38 ft 25 kts 71°
2026-04-07 17:34 22.33012 113.91443 38 ft 26 kts 71°
2026-04-07 17:35 22.33072 113.91633 38 ft 28 kts 71°
2026-04-07 17:35 22.33137 113.91832 38 ft 29 kts 70°
2026-04-07 17:35 22.33198 113.92016 38 ft 17 kts 70°
2026-04-07 17:35 22.33187 113.92118 38 ft 15 kts 138°
2026-04-07 17:36 22.33087 113.92166 38 ft 17 kts 158°
2026-04-07 17:36 22.32969 113.92208 38 ft 19 kts 161°
2026-04-07 17:36 22.32837 113.92256 38 ft 21 kts 161°
2026-04-07 17:36 22.32691 113.92309 50 ft 23 kts 161°
2026-04-07 17:37 22.32535 113.92372 38 ft 25 kts 159°
2026-04-07 17:37 22.32367 113.92436 38 ft 26 kts 166°
2026-04-07 17:37 22.32233 113.92516 38 ft 17 kts 103°
2026-04-07 17:37 22.32257 113.92625 38 ft 8 kts 94°
2026-04-07 17:38 22.32217 113.92673 38 ft 9 kts 154°
2026-04-07 17:38 22.32186 113.92648 38 ft 7 kts 252°
2026-04-07 17:38 22.32166 113.92579 38 ft 12 kts 252°
2026-04-07 17:38 22.32135 113.92474 38 ft 16 kts 251°
2026-04-07 17:39 22.32093 113.92339 38 ft 22 kts 250°
2026-04-07 17:39 22.32037 113.92170 38 ft 25 kts 251°
2026-04-07 17:39 22.31977 113.91982 38 ft 28 kts 251°
2026-04-07 17:39 22.31910 113.91778 38 ft 30 kts 251°
2026-04-07 17:40 22.31840 113.91559 38 ft 32 kts 251°
2026-04-07 17:40 22.31764 113.91326 38 ft 34 kts 251°
2026-04-07 17:40 22.31684 113.91080 38 ft 36 kts 251°
2026-04-07 17:40 22.31600 113.90822 38 ft 37 kts 251°
2026-04-07 17:41 22.31513 113.90553 38 ft 39 kts 251°
2026-04-07 17:41 22.31425 113.90271 38 ft 40 kts 251°
2026-04-07 17:41 22.31356 113.90052 38 ft 23 kts 251°
2026-04-07 17:41 22.31302 113.89879 38 ft 22 kts 251°
2026-04-07 17:42 22.31210 113.89812 38 ft 17 kts 163°
2026-04-07 17:42 22.31087 113.89864 36 ft 20 kts 161°
2026-04-07 17:42 22.30970 113.89904 38 ft 17 kts 162°
2026-04-07 17:42 22.30878 113.89976 38 ft 17 kts 101°
2026-04-07 17:43 22.30910 113.90102 38 ft 19 kts 71°
2026-04-07 17:43 22.30954 113.90244 38 ft 21 kts 71°
2026-04-07 17:43 22.30983 113.90396 37 ft 18 kts 122°
2026-04-07 17:43 22.30867 113.90462 38 ft 20 kts 160°
2026-04-07 17:44 22.30727 113.90514 38 ft 22 kts 160°
2026-04-07 17:44 22.30575 113.90572 38 ft 24 kts 160°
2026-04-07 17:44 22.30411 113.90634 38 ft 26 kts 163°
2026-04-07 17:44 22.30240 113.90692 38 ft 22 kts 162°
2026-04-07 17:45 22.30125 113.90755 38 ft 14 kts 109°
2026-04-07 17:45 22.30147 113.90863 38 ft 16 kts 73°
2026-04-07 17:45 22.30184 113.90988 38 ft 19 kts 71°
2026-04-07 17:45 22.30230 113.91127 38 ft 21 kts 70°
2026-04-07 17:46 22.30280 113.91277 38 ft 19 kts 70°
2026-04-07 17:46 22.30292 113.91313 38 ft 0 kts 70°
2026-04-07 17:47 22.30293 113.91314 38 ft 1 kts 70°
2026-04-07 17:47 22.30300 113.91337 38 ft 6 kts 70°
2026-04-07 17:47 22.30319 113.91396 38 ft 11 kts 70°
2026-04-07 17:48 22.30350 113.91489 38 ft 15 kts 70°
2026-04-07 17:48 22.30388 113.91607 38 ft 18 kts 71°
2026-04-07 17:48 22.30432 113.91743 38 ft 20 kts 71°
2026-04-07 17:48 22.30481 113.91894 38 ft 22 kts 71°
2026-04-07 17:49 22.30534 113.92060 38 ft 24 kts 71°
2026-04-07 17:49 22.30592 113.92239 38 ft 26 kts 71°
2026-04-07 17:49 22.30654 113.92430 38 ft 28 kts 71°
2026-04-07 17:49 22.30719 113.92633 38 ft 29 kts 71°
2026-04-07 17:50 22.30771 113.92777 38 ft 11 kts 49°
2026-04-07 17:50 22.30843 113.92780 38 ft 12 kts 343°
2026-04-07 17:50 22.30934 113.92761 38 ft 14 kts 344°
2026-04-07 17:50 22.30970 113.92712 38 ft 6 kts 296°
2026-04-07 17:51 22.30976 113.92698 38 ft 3 kts 296°
2026-04-07 17:51 22.30982 113.92686 38 ft 0 kts 296°